<?xml version="1.0" encoding="UTF-8" standalone="no" ?>
<gpx xmlns="http://www.topografix.com/GPX/1/1" xmlns:xsi="http://www.w3.org/2001/XMLSchema-instance" xsi:schemaLocation="http://www.topografix.com/GPX/1/1 http://www.topografix.com/GPX/1/1/gpx.xsd" version="1.1" creator="VisuGPX - https://www.visugpx.com">
  <metadata>
    <name>20180617 Le Bayard-Enieu-Etang de Lemps-Enieu-Le Bayard</name>
    <desc><![CDATA[Circuit VTT au départ du Port de Quirieu]]></desc>
  </metadata>
  <trk>
    <name><![CDATA[ACTIVE LOG091432]]></name>
    <trkseg>
      <trkpt lat="45.78721" lon="5.44343">
        <ele>191.282</ele>
        <time>2018-06-17T07:14:48Z</time>
      </trkpt>
      <trkpt lat="45.78719" lon="5.44344">
        <ele>199.958</ele>
        <time>2018-06-17T07:14:59Z</time>
      </trkpt>
      <trkpt lat="45.7871" lon="5.44356">
        <ele>201.322</ele>
        <time>2018-06-17T07:15:04Z</time>
      </trkpt>
      <trkpt lat="45.78699" lon="5.44363">
        <ele>202.892</ele>
        <time>2018-06-17T07:15:07Z</time>
      </trkpt>
      <trkpt lat="45.78678" lon="5.44365">
        <ele>206.677</ele>
        <time>2018-06-17T07:15:13Z</time>
      </trkpt>
      <trkpt lat="45.78673" lon="5.44364">
        <ele>208.1</ele>
        <time>2018-06-17T07:15:15Z</time>
      </trkpt>
      <trkpt lat="45.78663" lon="5.44363">
        <ele>209.244</ele>
        <time>2018-06-17T07:15:19Z</time>
      </trkpt>
      <trkpt lat="45.78645" lon="5.44362">
        <ele>213.161</ele>
        <time>2018-06-17T07:15:25Z</time>
      </trkpt>
      <trkpt lat="45.78631" lon="5.44362">
        <ele>214.695</ele>
        <time>2018-06-17T07:15:29Z</time>
      </trkpt>
      <trkpt lat="45.78604" lon="5.44366">
        <ele>217.176</ele>
        <time>2018-06-17T07:15:37Z</time>
      </trkpt>
      <trkpt lat="45.78579" lon="5.44383">
        <ele>219.819</ele>
        <time>2018-06-17T07:15:45Z</time>
      </trkpt>
      <trkpt lat="45.78557" lon="5.44399">
        <ele>221.239</ele>
        <time>2018-06-17T07:15:52Z</time>
      </trkpt>
      <trkpt lat="45.78538" lon="5.4441">
        <ele>222.863</ele>
        <time>2018-06-17T07:15:58Z</time>
      </trkpt>
      <trkpt lat="45.78513" lon="5.44426">
        <ele>223.514</ele>
        <time>2018-06-17T07:16:05Z</time>
      </trkpt>
      <trkpt lat="45.7847" lon="5.44445">
        <ele>225.355</ele>
        <time>2018-06-17T07:16:17Z</time>
      </trkpt>
      <trkpt lat="45.78425" lon="5.44462">
        <ele>227.104</ele>
        <time>2018-06-17T07:16:30Z</time>
      </trkpt>
      <trkpt lat="45.78395" lon="5.44471">
        <ele>228.034</ele>
        <time>2018-06-17T07:16:39Z</time>
      </trkpt>
      <trkpt lat="45.78359" lon="5.44479">
        <ele>228.257</ele>
        <time>2018-06-17T07:16:49Z</time>
      </trkpt>
      <trkpt lat="45.78349" lon="5.4448">
        <ele>228.168</ele>
        <time>2018-06-17T07:16:52Z</time>
      </trkpt>
      <trkpt lat="45.78296" lon="5.44479">
        <ele>227.109</ele>
        <time>2018-06-17T07:17:05Z</time>
      </trkpt>
      <trkpt lat="45.78258" lon="5.44462">
        <ele>226.716</ele>
        <time>2018-06-17T07:17:15Z</time>
      </trkpt>
      <trkpt lat="45.78255" lon="5.44459">
        <ele>226.92</ele>
        <time>2018-06-17T07:17:16Z</time>
      </trkpt>
      <trkpt lat="45.78218" lon="5.4442">
        <ele>225.989</ele>
        <time>2018-06-17T07:17:27Z</time>
      </trkpt>
      <trkpt lat="45.78181" lon="5.44368">
        <ele>224.995</ele>
        <time>2018-06-17T07:17:38Z</time>
      </trkpt>
      <trkpt lat="45.78144" lon="5.4431">
        <ele>224.253</ele>
        <time>2018-06-17T07:17:50Z</time>
      </trkpt>
      <trkpt lat="45.78113" lon="5.44263">
        <ele>224.271</ele>
        <time>2018-06-17T07:18:02Z</time>
      </trkpt>
      <trkpt lat="45.78083" lon="5.44229">
        <ele>222.992</ele>
        <time>2018-06-17T07:18:12Z</time>
      </trkpt>
      <trkpt lat="45.78061" lon="5.44201">
        <ele>223.428</ele>
        <time>2018-06-17T07:18:22Z</time>
      </trkpt>
      <trkpt lat="45.78057" lon="5.44197">
        <ele>222.939</ele>
        <time>2018-06-17T07:18:29Z</time>
      </trkpt>
      <trkpt lat="45.78039" lon="5.44184">
        <ele>222.33</ele>
        <time>2018-06-17T07:18:41Z</time>
      </trkpt>
      <trkpt lat="45.7802" lon="5.44171">
        <ele>222.056</ele>
        <time>2018-06-17T07:18:52Z</time>
      </trkpt>
      <trkpt lat="45.77994" lon="5.44156">
        <ele>221.71</ele>
        <time>2018-06-17T07:19:00Z</time>
      </trkpt>
      <trkpt lat="45.77951" lon="5.44129">
        <ele>221.581</ele>
        <time>2018-06-17T07:19:12Z</time>
      </trkpt>
      <trkpt lat="45.7794" lon="5.44121">
        <ele>221.654</ele>
        <time>2018-06-17T07:19:16Z</time>
      </trkpt>
      <trkpt lat="45.77941" lon="5.44104">
        <ele>221.977</ele>
        <time>2018-06-17T07:19:21Z</time>
      </trkpt>
      <trkpt lat="45.77954" lon="5.44071">
        <ele>221.944</ele>
        <time>2018-06-17T07:19:29Z</time>
      </trkpt>
      <trkpt lat="45.77977" lon="5.44044">
        <ele>222.275</ele>
        <time>2018-06-17T07:19:38Z</time>
      </trkpt>
      <trkpt lat="45.77991" lon="5.44036">
        <ele>222.047</ele>
        <time>2018-06-17T07:19:43Z</time>
      </trkpt>
      <trkpt lat="45.78008" lon="5.44024">
        <ele>222.833</ele>
        <time>2018-06-17T07:19:50Z</time>
      </trkpt>
      <trkpt lat="45.7802" lon="5.44014">
        <ele>222.917</ele>
        <time>2018-06-17T07:19:56Z</time>
      </trkpt>
      <trkpt lat="45.7801" lon="5.43974">
        <ele>223.342</ele>
        <time>2018-06-17T07:20:03Z</time>
      </trkpt>
      <trkpt lat="45.77996" lon="5.43935">
        <ele>222.973</ele>
        <time>2018-06-17T07:20:13Z</time>
      </trkpt>
      <trkpt lat="45.77994" lon="5.4393">
        <ele>223.408</ele>
        <time>2018-06-17T07:20:19Z</time>
      </trkpt>
      <trkpt lat="45.7799" lon="5.43916">
        <ele>223.237</ele>
        <time>2018-06-17T07:20:24Z</time>
      </trkpt>
      <trkpt lat="45.77982" lon="5.43892">
        <ele>223.456</ele>
        <time>2018-06-17T07:20:33Z</time>
      </trkpt>
      <trkpt lat="45.77976" lon="5.43876">
        <ele>223.78</ele>
        <time>2018-06-17T07:20:41Z</time>
      </trkpt>
      <trkpt lat="45.77974" lon="5.43873">
        <ele>223.782</ele>
        <time>2018-06-17T07:20:42Z</time>
      </trkpt>
      <trkpt lat="45.77972" lon="5.43865">
        <ele>224.245</ele>
        <time>2018-06-17T07:20:48Z</time>
      </trkpt>
      <trkpt lat="45.77964" lon="5.43844">
        <ele>224.045</ele>
        <time>2018-06-17T07:20:57Z</time>
      </trkpt>
      <trkpt lat="45.77951" lon="5.43816">
        <ele>224.102</ele>
        <time>2018-06-17T07:21:09Z</time>
      </trkpt>
      <trkpt lat="45.77947" lon="5.43805">
        <ele>224.12</ele>
        <time>2018-06-17T07:21:15Z</time>
      </trkpt>
      <trkpt lat="45.77936" lon="5.43775">
        <ele>223.939</ele>
        <time>2018-06-17T07:21:23Z</time>
      </trkpt>
      <trkpt lat="45.77923" lon="5.4374">
        <ele>223.949</ele>
        <time>2018-06-17T07:21:31Z</time>
      </trkpt>
      <trkpt lat="45.7791" lon="5.43707">
        <ele>223.764</ele>
        <time>2018-06-17T07:21:38Z</time>
      </trkpt>
      <trkpt lat="45.77888" lon="5.43653">
        <ele>223.228</ele>
        <time>2018-06-17T07:21:48Z</time>
      </trkpt>
      <trkpt lat="45.77865" lon="5.43588">
        <ele>223.464</ele>
        <time>2018-06-17T07:21:59Z</time>
      </trkpt>
      <trkpt lat="45.77841" lon="5.43518">
        <ele>224.136</ele>
        <time>2018-06-17T07:22:12Z</time>
      </trkpt>
      <trkpt lat="45.77817" lon="5.43449">
        <ele>224.61</ele>
        <time>2018-06-17T07:22:25Z</time>
      </trkpt>
      <trkpt lat="45.77794" lon="5.43374">
        <ele>224.811</ele>
        <time>2018-06-17T07:22:39Z</time>
      </trkpt>
      <trkpt lat="45.77774" lon="5.43316">
        <ele>225.378</ele>
        <time>2018-06-17T07:22:52Z</time>
      </trkpt>
      <trkpt lat="45.77766" lon="5.43293">
        <ele>224.202</ele>
        <time>2018-06-17T07:22:58Z</time>
      </trkpt>
      <trkpt lat="45.77759" lon="5.43256">
        <ele>225.111</ele>
        <time>2018-06-17T07:23:06Z</time>
      </trkpt>
      <trkpt lat="45.77754" lon="5.43213">
        <ele>224.176</ele>
        <time>2018-06-17T07:23:15Z</time>
      </trkpt>
      <trkpt lat="45.77746" lon="5.43166">
        <ele>225.934</ele>
        <time>2018-06-17T07:23:25Z</time>
      </trkpt>
      <trkpt lat="45.7773" lon="5.43111">
        <ele>227.269</ele>
        <time>2018-06-17T07:23:37Z</time>
      </trkpt>
      <trkpt lat="45.77725" lon="5.43098">
        <ele>225.857</ele>
        <time>2018-06-17T07:23:40Z</time>
      </trkpt>
      <trkpt lat="45.77711" lon="5.43047">
        <ele>226.891</ele>
        <time>2018-06-17T07:23:51Z</time>
      </trkpt>
      <trkpt lat="45.7769" lon="5.42985">
        <ele>226.73</ele>
        <time>2018-06-17T07:24:06Z</time>
      </trkpt>
      <trkpt lat="45.77682" lon="5.42964">
        <ele>227.344</ele>
        <time>2018-06-17T07:24:13Z</time>
      </trkpt>
      <trkpt lat="45.77666" lon="5.42928">
        <ele>226.828</ele>
        <time>2018-06-17T07:24:23Z</time>
      </trkpt>
      <trkpt lat="45.77651" lon="5.42883">
        <ele>227.121</ele>
        <time>2018-06-17T07:24:33Z</time>
      </trkpt>
      <trkpt lat="45.77641" lon="5.42832">
        <ele>226.988</ele>
        <time>2018-06-17T07:24:43Z</time>
      </trkpt>
      <trkpt lat="45.77634" lon="5.42788">
        <ele>228.994</ele>
        <time>2018-06-17T07:24:54Z</time>
      </trkpt>
      <trkpt lat="45.77627" lon="5.42753">
        <ele>229.81</ele>
        <time>2018-06-17T07:25:04Z</time>
      </trkpt>
      <trkpt lat="45.77613" lon="5.4273">
        <ele>230.069</ele>
        <time>2018-06-17T07:25:11Z</time>
      </trkpt>
      <trkpt lat="45.7759" lon="5.42706">
        <ele>229.697</ele>
        <time>2018-06-17T07:25:19Z</time>
      </trkpt>
      <trkpt lat="45.77553" lon="5.42671">
        <ele>229.033</ele>
        <time>2018-06-17T07:25:31Z</time>
      </trkpt>
      <trkpt lat="45.77546" lon="5.42664">
        <ele>228.813</ele>
        <time>2018-06-17T07:25:34Z</time>
      </trkpt>
      <trkpt lat="45.77556" lon="5.42639">
        <ele>228.898</ele>
        <time>2018-06-17T07:25:43Z</time>
      </trkpt>
      <trkpt lat="45.77562" lon="5.42621">
        <ele>229.139</ele>
        <time>2018-06-17T07:25:53Z</time>
      </trkpt>
      <trkpt lat="45.77572" lon="5.42592">
        <ele>229.136</ele>
        <time>2018-06-17T07:26:03Z</time>
      </trkpt>
      <trkpt lat="45.77585" lon="5.42557">
        <ele>228.853</ele>
        <time>2018-06-17T07:26:12Z</time>
      </trkpt>
      <trkpt lat="45.77606" lon="5.42512">
        <ele>228.946</ele>
        <time>2018-06-17T07:26:24Z</time>
      </trkpt>
      <trkpt lat="45.77622" lon="5.42462">
        <ele>230.032</ele>
        <time>2018-06-17T07:26:36Z</time>
      </trkpt>
      <trkpt lat="45.77629" lon="5.42422">
        <ele>230.791</ele>
        <time>2018-06-17T07:26:47Z</time>
      </trkpt>
      <trkpt lat="45.77631" lon="5.42405">
        <ele>230.943</ele>
        <time>2018-06-17T07:26:52Z</time>
      </trkpt>
      <trkpt lat="45.77636" lon="5.42391">
        <ele>231.763</ele>
        <time>2018-06-17T07:26:57Z</time>
      </trkpt>
      <trkpt lat="45.77637" lon="5.42387">
        <ele>232.18</ele>
        <time>2018-06-17T07:26:58Z</time>
      </trkpt>
      <trkpt lat="45.77646" lon="5.42362">
        <ele>233.662</ele>
        <time>2018-06-17T07:27:06Z</time>
      </trkpt>
      <trkpt lat="45.77653" lon="5.42344">
        <ele>234.438</ele>
        <time>2018-06-17T07:27:13Z</time>
      </trkpt>
      <trkpt lat="45.77659" lon="5.42326">
        <ele>235.697</ele>
        <time>2018-06-17T07:27:20Z</time>
      </trkpt>
      <trkpt lat="45.77666" lon="5.42307">
        <ele>237.254</ele>
        <time>2018-06-17T07:27:28Z</time>
      </trkpt>
      <trkpt lat="45.77672" lon="5.42285">
        <ele>238.985</ele>
        <time>2018-06-17T07:27:36Z</time>
      </trkpt>
      <trkpt lat="45.7768" lon="5.42259">
        <ele>239.794</ele>
        <time>2018-06-17T07:27:45Z</time>
      </trkpt>
      <trkpt lat="45.77687" lon="5.4223">
        <ele>241.885</ele>
        <time>2018-06-17T07:27:54Z</time>
      </trkpt>
      <trkpt lat="45.77696" lon="5.42203">
        <ele>243.326</ele>
        <time>2018-06-17T07:28:03Z</time>
      </trkpt>
      <trkpt lat="45.777" lon="5.42186">
        <ele>244.34</ele>
        <time>2018-06-17T07:28:10Z</time>
      </trkpt>
      <trkpt lat="45.77723" lon="5.4218">
        <ele>245.058</ele>
        <time>2018-06-17T07:28:22Z</time>
      </trkpt>
      <trkpt lat="45.77736" lon="5.42144">
        <ele>246.222</ele>
        <time>2018-06-17T07:28:32Z</time>
      </trkpt>
      <trkpt lat="45.7775" lon="5.42125">
        <ele>246.718</ele>
        <time>2018-06-17T07:28:40Z</time>
      </trkpt>
      <trkpt lat="45.77764" lon="5.42106">
        <ele>248.06</ele>
        <time>2018-06-17T07:28:48Z</time>
      </trkpt>
      <trkpt lat="45.7778" lon="5.42081">
        <ele>248.895</ele>
        <time>2018-06-17T07:28:58Z</time>
      </trkpt>
      <trkpt lat="45.77794" lon="5.42063">
        <ele>249.115</ele>
        <time>2018-06-17T07:29:06Z</time>
      </trkpt>
      <trkpt lat="45.77801" lon="5.42042">
        <ele>249.49</ele>
        <time>2018-06-17T07:29:12Z</time>
      </trkpt>
      <trkpt lat="45.77807" lon="5.42012">
        <ele>250.83</ele>
        <time>2018-06-17T07:29:21Z</time>
      </trkpt>
      <trkpt lat="45.77815" lon="5.41981">
        <ele>251.21</ele>
        <time>2018-06-17T07:29:30Z</time>
      </trkpt>
      <trkpt lat="45.77818" lon="5.41948">
        <ele>252.501</ele>
        <time>2018-06-17T07:29:39Z</time>
      </trkpt>
      <trkpt lat="45.77814" lon="5.41901">
        <ele>252.351</ele>
        <time>2018-06-17T07:29:50Z</time>
      </trkpt>
      <trkpt lat="45.77816" lon="5.41857">
        <ele>253.549</ele>
        <time>2018-06-17T07:29:59Z</time>
      </trkpt>
      <trkpt lat="45.77816" lon="5.41828">
        <ele>254.111</ele>
        <time>2018-06-17T07:30:05Z</time>
      </trkpt>
      <trkpt lat="45.77816" lon="5.41799">
        <ele>254.417</ele>
        <time>2018-06-17T07:30:11Z</time>
      </trkpt>
      <trkpt lat="45.77817" lon="5.41765">
        <ele>254.906</ele>
        <time>2018-06-17T07:30:18Z</time>
      </trkpt>
      <trkpt lat="45.77818" lon="5.41753">
        <ele>255.394</ele>
        <time>2018-06-17T07:30:22Z</time>
      </trkpt>
      <trkpt lat="45.77819" lon="5.41739">
        <ele>255.558</ele>
        <time>2018-06-17T07:30:28Z</time>
      </trkpt>
      <trkpt lat="45.7782" lon="5.41733">
        <ele>256.093</ele>
        <time>2018-06-17T07:30:33Z</time>
      </trkpt>
      <trkpt lat="45.77821" lon="5.41719">
        <ele>256.64</ele>
        <time>2018-06-17T07:32:20Z</time>
      </trkpt>
      <trkpt lat="45.77835" lon="5.41692">
        <ele>257.45</ele>
        <time>2018-06-17T07:32:28Z</time>
      </trkpt>
      <trkpt lat="45.77854" lon="5.41666">
        <ele>257.912</ele>
        <time>2018-06-17T07:32:36Z</time>
      </trkpt>
      <trkpt lat="45.77862" lon="5.41656">
        <ele>258.671</ele>
        <time>2018-06-17T07:32:39Z</time>
      </trkpt>
      <trkpt lat="45.77879" lon="5.41642">
        <ele>259.337</ele>
        <time>2018-06-17T07:32:46Z</time>
      </trkpt>
      <trkpt lat="45.77897" lon="5.41627">
        <ele>259.749</ele>
        <time>2018-06-17T07:32:53Z</time>
      </trkpt>
      <trkpt lat="45.77906" lon="5.41618">
        <ele>259.862</ele>
        <time>2018-06-17T07:32:56Z</time>
      </trkpt>
      <trkpt lat="45.7794" lon="5.41591">
        <ele>260.53</ele>
        <time>2018-06-17T07:33:04Z</time>
      </trkpt>
      <trkpt lat="45.77953" lon="5.4157">
        <ele>260.799</ele>
        <time>2018-06-17T07:33:10Z</time>
      </trkpt>
      <trkpt lat="45.77966" lon="5.41545">
        <ele>260.874</ele>
        <time>2018-06-17T07:33:16Z</time>
      </trkpt>
      <trkpt lat="45.77975" lon="5.41538">
        <ele>261.784</ele>
        <time>2018-06-17T07:33:20Z</time>
      </trkpt>
      <trkpt lat="45.77992" lon="5.41522">
        <ele>261.399</ele>
        <time>2018-06-17T07:33:25Z</time>
      </trkpt>
      <trkpt lat="45.78006" lon="5.41489">
        <ele>261.658</ele>
        <time>2018-06-17T07:33:32Z</time>
      </trkpt>
      <trkpt lat="45.78011" lon="5.41446">
        <ele>263.074</ele>
        <time>2018-06-17T07:33:41Z</time>
      </trkpt>
      <trkpt lat="45.78018" lon="5.41397">
        <ele>263.808</ele>
        <time>2018-06-17T07:33:52Z</time>
      </trkpt>
      <trkpt lat="45.78031" lon="5.41356">
        <ele>263.607</ele>
        <time>2018-06-17T07:34:01Z</time>
      </trkpt>
      <trkpt lat="45.78062" lon="5.41313">
        <ele>264.731</ele>
        <time>2018-06-17T07:34:14Z</time>
      </trkpt>
      <trkpt lat="45.78089" lon="5.41308">
        <ele>264.73</ele>
        <time>2018-06-17T07:34:22Z</time>
      </trkpt>
      <trkpt lat="45.78114" lon="5.41293">
        <ele>265.102</ele>
        <time>2018-06-17T07:34:30Z</time>
      </trkpt>
      <trkpt lat="45.7813" lon="5.41274">
        <ele>266.397</ele>
        <time>2018-06-17T07:34:38Z</time>
      </trkpt>
      <trkpt lat="45.78152" lon="5.41242">
        <ele>269.015</ele>
        <time>2018-06-17T07:34:51Z</time>
      </trkpt>
      <trkpt lat="45.78168" lon="5.41206">
        <ele>271.336</ele>
        <time>2018-06-17T07:35:04Z</time>
      </trkpt>
      <trkpt lat="45.78175" lon="5.41185">
        <ele>273.495</ele>
        <time>2018-06-17T07:35:11Z</time>
      </trkpt>
      <trkpt lat="45.7819" lon="5.41148">
        <ele>276.492</ele>
        <time>2018-06-17T07:35:24Z</time>
      </trkpt>
      <trkpt lat="45.78204" lon="5.41127">
        <ele>278.189</ele>
        <time>2018-06-17T07:35:30Z</time>
      </trkpt>
      <trkpt lat="45.78221" lon="5.41108">
        <ele>279.18</ele>
        <time>2018-06-17T07:35:37Z</time>
      </trkpt>
      <trkpt lat="45.78246" lon="5.41079">
        <ele>280.003</ele>
        <time>2018-06-17T07:35:49Z</time>
      </trkpt>
      <trkpt lat="45.78253" lon="5.41071">
        <ele>281.434</ele>
        <time>2018-06-17T07:35:52Z</time>
      </trkpt>
      <trkpt lat="45.78278" lon="5.41037">
        <ele>284.689</ele>
        <time>2018-06-17T07:36:06Z</time>
      </trkpt>
      <trkpt lat="45.78288" lon="5.41022">
        <ele>286.407</ele>
        <time>2018-06-17T07:36:13Z</time>
      </trkpt>
      <trkpt lat="45.78296" lon="5.41007">
        <ele>287.901</ele>
        <time>2018-06-17T07:36:20Z</time>
      </trkpt>
      <trkpt lat="45.7831" lon="5.40982">
        <ele>289.942</ele>
        <time>2018-06-17T07:36:32Z</time>
      </trkpt>
      <trkpt lat="45.78316" lon="5.40963">
        <ele>292.008</ele>
        <time>2018-06-17T07:36:42Z</time>
      </trkpt>
      <trkpt lat="45.78316" lon="5.40961">
        <ele>293.203</ele>
        <time>2018-06-17T07:36:51Z</time>
      </trkpt>
      <trkpt lat="45.78327" lon="5.40922">
        <ele>294.478</ele>
        <time>2018-06-17T07:39:04Z</time>
      </trkpt>
      <trkpt lat="45.78335" lon="5.40891">
        <ele>295.408</ele>
        <time>2018-06-17T07:39:16Z</time>
      </trkpt>
      <trkpt lat="45.78342" lon="5.40864">
        <ele>295.733</ele>
        <time>2018-06-17T07:39:25Z</time>
      </trkpt>
      <trkpt lat="45.78355" lon="5.40819">
        <ele>296.329</ele>
        <time>2018-06-17T07:39:37Z</time>
      </trkpt>
      <trkpt lat="45.78364" lon="5.40786">
        <ele>296.534</ele>
        <time>2018-06-17T07:39:47Z</time>
      </trkpt>
      <trkpt lat="45.78371" lon="5.40762">
        <ele>297.24</ele>
        <time>2018-06-17T07:39:55Z</time>
      </trkpt>
      <trkpt lat="45.78396" lon="5.40763">
        <ele>298.401</ele>
        <time>2018-06-17T07:40:04Z</time>
      </trkpt>
      <trkpt lat="45.7842" lon="5.40761">
        <ele>299.024</ele>
        <time>2018-06-17T07:40:15Z</time>
      </trkpt>
      <trkpt lat="45.78439" lon="5.40746">
        <ele>301.148</ele>
        <time>2018-06-17T07:40:24Z</time>
      </trkpt>
      <trkpt lat="45.78459" lon="5.40726">
        <ele>301.409</ele>
        <time>2018-06-17T07:40:34Z</time>
      </trkpt>
      <trkpt lat="45.78481" lon="5.40699">
        <ele>302.527</ele>
        <time>2018-06-17T07:40:45Z</time>
      </trkpt>
      <trkpt lat="45.78494" lon="5.4068">
        <ele>302.279</ele>
        <time>2018-06-17T07:40:53Z</time>
      </trkpt>
      <trkpt lat="45.78509" lon="5.40663">
        <ele>303.048</ele>
        <time>2018-06-17T07:41:02Z</time>
      </trkpt>
      <trkpt lat="45.78519" lon="5.40651">
        <ele>302.755</ele>
        <time>2018-06-17T07:41:09Z</time>
      </trkpt>
      <trkpt lat="45.78529" lon="5.40631">
        <ele>301.699</ele>
        <time>2018-06-17T07:41:17Z</time>
      </trkpt>
      <trkpt lat="45.78544" lon="5.40611">
        <ele>300.848</ele>
        <time>2018-06-17T07:41:23Z</time>
      </trkpt>
      <trkpt lat="45.7856" lon="5.40603">
        <ele>300.483</ele>
        <time>2018-06-17T07:41:27Z</time>
      </trkpt>
      <trkpt lat="45.7859" lon="5.40601">
        <ele>297.672</ele>
        <time>2018-06-17T07:41:32Z</time>
      </trkpt>
      <trkpt lat="45.78624" lon="5.40625">
        <ele>293.678</ele>
        <time>2018-06-17T07:41:37Z</time>
      </trkpt>
      <trkpt lat="45.78637" lon="5.4064">
        <ele>292.302</ele>
        <time>2018-06-17T07:41:39Z</time>
      </trkpt>
      <trkpt lat="45.78651" lon="5.40656">
        <ele>290.374</ele>
        <time>2018-06-17T07:41:41Z</time>
      </trkpt>
      <trkpt lat="45.7867" lon="5.40671">
        <ele>288.611</ele>
        <time>2018-06-17T07:41:43Z</time>
      </trkpt>
      <trkpt lat="45.7869" lon="5.40684">
        <ele>285.513</ele>
        <time>2018-06-17T07:41:45Z</time>
      </trkpt>
      <trkpt lat="45.7874" lon="5.40707">
        <ele>283.867</ele>
        <time>2018-06-17T07:41:50Z</time>
      </trkpt>
      <trkpt lat="45.7876" lon="5.40719">
        <ele>282.647</ele>
        <time>2018-06-17T07:41:52Z</time>
      </trkpt>
      <trkpt lat="45.78801" lon="5.40727">
        <ele>281.842</ele>
        <time>2018-06-17T07:41:56Z</time>
      </trkpt>
      <trkpt lat="45.78876" lon="5.4074">
        <ele>280.709</ele>
        <time>2018-06-17T07:42:04Z</time>
      </trkpt>
      <trkpt lat="45.78884" lon="5.40743">
        <ele>280.313</ele>
        <time>2018-06-17T07:42:05Z</time>
      </trkpt>
      <trkpt lat="45.78913" lon="5.40746">
        <ele>280.703</ele>
        <time>2018-06-17T07:42:09Z</time>
      </trkpt>
      <trkpt lat="45.78971" lon="5.40731">
        <ele>279.281</ele>
        <time>2018-06-17T07:42:20Z</time>
      </trkpt>
      <trkpt lat="45.78998" lon="5.40724">
        <ele>278.361</ele>
        <time>2018-06-17T07:42:25Z</time>
      </trkpt>
      <trkpt lat="45.79" lon="5.40685">
        <ele>275.327</ele>
        <time>2018-06-17T07:42:28Z</time>
      </trkpt>
      <trkpt lat="45.79002" lon="5.40677">
        <ele>275.101</ele>
        <time>2018-06-17T07:42:29Z</time>
      </trkpt>
      <trkpt lat="45.79007" lon="5.40644">
        <ele>275.545</ele>
        <time>2018-06-17T07:42:33Z</time>
      </trkpt>
      <trkpt lat="45.79013" lon="5.40623">
        <ele>277.08</ele>
        <time>2018-06-17T07:42:37Z</time>
      </trkpt>
      <trkpt lat="45.79021" lon="5.40594">
        <ele>277.505</ele>
        <time>2018-06-17T07:42:45Z</time>
      </trkpt>
      <trkpt lat="45.79026" lon="5.40566">
        <ele>278.481</ele>
        <time>2018-06-17T07:42:52Z</time>
      </trkpt>
      <trkpt lat="45.79028" lon="5.40542">
        <ele>278.483</ele>
        <time>2018-06-17T07:43:00Z</time>
      </trkpt>
      <trkpt lat="45.79031" lon="5.40506">
        <ele>277.326</ele>
        <time>2018-06-17T07:43:08Z</time>
      </trkpt>
      <trkpt lat="45.79037" lon="5.40474">
        <ele>276.034</ele>
        <time>2018-06-17T07:43:15Z</time>
      </trkpt>
      <trkpt lat="45.79043" lon="5.4044">
        <ele>277.122</ele>
        <time>2018-06-17T07:43:23Z</time>
      </trkpt>
      <trkpt lat="45.79046" lon="5.40409">
        <ele>277.266</ele>
        <time>2018-06-17T07:43:30Z</time>
      </trkpt>
      <trkpt lat="45.79046" lon="5.40372">
        <ele>277.894</ele>
        <time>2018-06-17T07:43:38Z</time>
      </trkpt>
      <trkpt lat="45.79044" lon="5.40338">
        <ele>278.991</ele>
        <time>2018-06-17T07:43:45Z</time>
      </trkpt>
      <trkpt lat="45.79042" lon="5.40302">
        <ele>281.365</ele>
        <time>2018-06-17T07:43:54Z</time>
      </trkpt>
      <trkpt lat="45.79039" lon="5.40274">
        <ele>283.53</ele>
        <time>2018-06-17T07:44:03Z</time>
      </trkpt>
      <trkpt lat="45.79038" lon="5.40268">
        <ele>284.641</ele>
        <time>2018-06-17T07:44:05Z</time>
      </trkpt>
      <trkpt lat="45.79031" lon="5.40226">
        <ele>286.488</ele>
        <time>2018-06-17T07:44:19Z</time>
      </trkpt>
      <trkpt lat="45.79026" lon="5.40199">
        <ele>288.905</ele>
        <time>2018-06-17T07:44:29Z</time>
      </trkpt>
      <trkpt lat="45.7902" lon="5.40169">
        <ele>290.218</ele>
        <time>2018-06-17T07:44:40Z</time>
      </trkpt>
      <trkpt lat="45.79013" lon="5.40139">
        <ele>291.041</ele>
        <time>2018-06-17T07:44:50Z</time>
      </trkpt>
      <trkpt lat="45.79006" lon="5.40111">
        <ele>292.423</ele>
        <time>2018-06-17T07:45:01Z</time>
      </trkpt>
      <trkpt lat="45.79004" lon="5.40104">
        <ele>293.735</ele>
        <time>2018-06-17T07:45:04Z</time>
      </trkpt>
      <trkpt lat="45.78999" lon="5.40087">
        <ele>294.365</ele>
        <time>2018-06-17T07:45:14Z</time>
      </trkpt>
      <trkpt lat="45.78998" lon="5.40081">
        <ele>294.064</ele>
        <time>2018-06-17T07:45:18Z</time>
      </trkpt>
      <trkpt lat="45.78997" lon="5.40077">
        <ele>294.51</ele>
        <time>2018-06-17T07:45:20Z</time>
      </trkpt>
      <trkpt lat="45.78996" lon="5.40075">
        <ele>295.233</ele>
        <time>2018-06-17T07:45:26Z</time>
      </trkpt>
      <trkpt lat="45.78987" lon="5.40071">
        <ele>295.218</ele>
        <time>2018-06-17T07:45:28Z</time>
      </trkpt>
      <trkpt lat="45.78972" lon="5.40066">
        <ele>295.7</ele>
        <time>2018-06-17T07:45:36Z</time>
      </trkpt>
      <trkpt lat="45.78953" lon="5.4006">
        <ele>295.965</ele>
        <time>2018-06-17T07:45:47Z</time>
      </trkpt>
      <trkpt lat="45.78952" lon="5.40047">
        <ele>295.878</ele>
        <time>2018-06-17T07:45:51Z</time>
      </trkpt>
      <trkpt lat="45.78955" lon="5.40035">
        <ele>296.43</ele>
        <time>2018-06-17T07:46:02Z</time>
      </trkpt>
      <trkpt lat="45.78959" lon="5.40017">
        <ele>297.302</ele>
        <time>2018-06-17T07:46:54Z</time>
      </trkpt>
      <trkpt lat="45.78968" lon="5.39993">
        <ele>297.491</ele>
        <time>2018-06-17T07:47:01Z</time>
      </trkpt>
      <trkpt lat="45.78978" lon="5.39967">
        <ele>298.603</ele>
        <time>2018-06-17T07:47:09Z</time>
      </trkpt>
      <trkpt lat="45.78992" lon="5.39932">
        <ele>299.617</ele>
        <time>2018-06-17T07:47:18Z</time>
      </trkpt>
      <trkpt lat="45.79006" lon="5.39902">
        <ele>301.074</ele>
        <time>2018-06-17T07:47:27Z</time>
      </trkpt>
      <trkpt lat="45.79017" lon="5.39874">
        <ele>301.172</ele>
        <time>2018-06-17T07:47:36Z</time>
      </trkpt>
      <trkpt lat="45.79027" lon="5.39857">
        <ele>300.754</ele>
        <time>2018-06-17T07:47:44Z</time>
      </trkpt>
      <trkpt lat="45.79022" lon="5.39837">
        <ele>301.272</ele>
        <time>2018-06-17T07:47:50Z</time>
      </trkpt>
      <trkpt lat="45.79013" lon="5.39796">
        <ele>300.719</ele>
        <time>2018-06-17T07:48:01Z</time>
      </trkpt>
      <trkpt lat="45.79002" lon="5.39759">
        <ele>300.59</ele>
        <time>2018-06-17T07:48:10Z</time>
      </trkpt>
      <trkpt lat="45.7899" lon="5.39717">
        <ele>300.594</ele>
        <time>2018-06-17T07:48:20Z</time>
      </trkpt>
      <trkpt lat="45.78982" lon="5.39681">
        <ele>301.096</ele>
        <time>2018-06-17T07:48:29Z</time>
      </trkpt>
      <trkpt lat="45.78969" lon="5.39641">
        <ele>299.79</ele>
        <time>2018-06-17T07:48:40Z</time>
      </trkpt>
      <trkpt lat="45.78949" lon="5.39572">
        <ele>298.559</ele>
        <time>2018-06-17T07:48:50Z</time>
      </trkpt>
      <trkpt lat="45.78941" lon="5.39535">
        <ele>298.239</ele>
        <time>2018-06-17T07:48:57Z</time>
      </trkpt>
      <trkpt lat="45.78937" lon="5.39483">
        <ele>297.509</ele>
        <time>2018-06-17T07:49:07Z</time>
      </trkpt>
      <trkpt lat="45.78938" lon="5.39454">
        <ele>295.742</ele>
        <time>2018-06-17T07:49:12Z</time>
      </trkpt>
      <trkpt lat="45.78941" lon="5.39435">
        <ele>295.653</ele>
        <time>2018-06-17T07:49:15Z</time>
      </trkpt>
      <trkpt lat="45.78932" lon="5.39409">
        <ele>296.158</ele>
        <time>2018-06-17T07:49:20Z</time>
      </trkpt>
      <trkpt lat="45.78928" lon="5.39399">
        <ele>296.044</ele>
        <time>2018-06-17T07:49:22Z</time>
      </trkpt>
      <trkpt lat="45.78912" lon="5.39363">
        <ele>295.747</ele>
        <time>2018-06-17T07:49:29Z</time>
      </trkpt>
      <trkpt lat="45.78901" lon="5.39296">
        <ele>295.938</ele>
        <time>2018-06-17T07:49:41Z</time>
      </trkpt>
      <trkpt lat="45.78899" lon="5.39278">
        <ele>296.159</ele>
        <time>2018-06-17T07:49:44Z</time>
      </trkpt>
      <trkpt lat="45.78896" lon="5.39219">
        <ele>295.305</ele>
        <time>2018-06-17T07:49:55Z</time>
      </trkpt>
      <trkpt lat="45.78906" lon="5.3918">
        <ele>296.547</ele>
        <time>2018-06-17T07:50:03Z</time>
      </trkpt>
      <trkpt lat="45.78906" lon="5.39149">
        <ele>296.818</ele>
        <time>2018-06-17T07:50:10Z</time>
      </trkpt>
      <trkpt lat="45.78895" lon="5.391">
        <ele>298.263</ele>
        <time>2018-06-17T07:50:23Z</time>
      </trkpt>
      <trkpt lat="45.78889" lon="5.39066">
        <ele>299.197</ele>
        <time>2018-06-17T07:50:34Z</time>
      </trkpt>
      <trkpt lat="45.78885" lon="5.39034">
        <ele>301.446</ele>
        <time>2018-06-17T07:50:45Z</time>
      </trkpt>
      <trkpt lat="45.78883" lon="5.39005">
        <ele>302.869</ele>
        <time>2018-06-17T07:50:55Z</time>
      </trkpt>
      <trkpt lat="45.78877" lon="5.38983">
        <ele>303.92</ele>
        <time>2018-06-17T07:51:04Z</time>
      </trkpt>
      <trkpt lat="45.78869" lon="5.38972">
        <ele>305.556</ele>
        <time>2018-06-17T07:51:12Z</time>
      </trkpt>
      <trkpt lat="45.78853" lon="5.38967">
        <ele>306.936</ele>
        <time>2018-06-17T07:51:22Z</time>
      </trkpt>
      <trkpt lat="45.78845" lon="5.38964">
        <ele>307.958</ele>
        <time>2018-06-17T07:51:27Z</time>
      </trkpt>
      <trkpt lat="45.78839" lon="5.38962">
        <ele>309.541</ele>
        <time>2018-06-17T07:51:35Z</time>
      </trkpt>
      <trkpt lat="45.78822" lon="5.38955">
        <ele>310.68</ele>
        <time>2018-06-17T07:51:42Z</time>
      </trkpt>
      <trkpt lat="45.78808" lon="5.38948">
        <ele>311.976</ele>
        <time>2018-06-17T07:51:50Z</time>
      </trkpt>
      <trkpt lat="45.78793" lon="5.38941">
        <ele>313.642</ele>
        <time>2018-06-17T07:51:59Z</time>
      </trkpt>
      <trkpt lat="45.78785" lon="5.38936">
        <ele>314.179</ele>
        <time>2018-06-17T07:52:04Z</time>
      </trkpt>
      <trkpt lat="45.78784" lon="5.3892">
        <ele>315.335</ele>
        <time>2018-06-17T07:52:11Z</time>
      </trkpt>
      <trkpt lat="45.78788" lon="5.38916">
        <ele>316.507</ele>
        <time>2018-06-17T07:52:14Z</time>
      </trkpt>
      <trkpt lat="45.78801" lon="5.38898">
        <ele>316.876</ele>
        <time>2018-06-17T07:52:25Z</time>
      </trkpt>
      <trkpt lat="45.78813" lon="5.38883">
        <ele>317.492</ele>
        <time>2018-06-17T07:52:34Z</time>
      </trkpt>
      <trkpt lat="45.78826" lon="5.38866">
        <ele>318.118</ele>
        <time>2018-06-17T07:52:43Z</time>
      </trkpt>
      <trkpt lat="45.78844" lon="5.38843">
        <ele>319.716</ele>
        <time>2018-06-17T07:52:56Z</time>
      </trkpt>
      <trkpt lat="45.78859" lon="5.38817">
        <ele>321.161</ele>
        <time>2018-06-17T07:53:10Z</time>
      </trkpt>
      <trkpt lat="45.78874" lon="5.3879">
        <ele>322.921</ele>
        <time>2018-06-17T07:53:22Z</time>
      </trkpt>
      <trkpt lat="45.78891" lon="5.38753">
        <ele>323.868</ele>
        <time>2018-06-17T07:53:38Z</time>
      </trkpt>
      <trkpt lat="45.78898" lon="5.38727">
        <ele>324.607</ele>
        <time>2018-06-17T07:53:48Z</time>
      </trkpt>
      <trkpt lat="45.789" lon="5.38721">
        <ele>325.083</ele>
        <time>2018-06-17T07:53:51Z</time>
      </trkpt>
      <trkpt lat="45.78904" lon="5.38701">
        <ele>326.029</ele>
        <time>2018-06-17T07:53:59Z</time>
      </trkpt>
      <trkpt lat="45.78902" lon="5.38679">
        <ele>327.589</ele>
        <time>2018-06-17T07:54:09Z</time>
      </trkpt>
      <trkpt lat="45.78899" lon="5.38658">
        <ele>329.151</ele>
        <time>2018-06-17T07:54:19Z</time>
      </trkpt>
      <trkpt lat="45.78898" lon="5.38632">
        <ele>331.957</ele>
        <time>2018-06-17T07:54:32Z</time>
      </trkpt>
      <trkpt lat="45.78898" lon="5.38627">
        <ele>332.768</ele>
        <time>2018-06-17T07:54:34Z</time>
      </trkpt>
      <trkpt lat="45.78898" lon="5.38608">
        <ele>333.407</ele>
        <time>2018-06-17T07:54:42Z</time>
      </trkpt>
      <trkpt lat="45.78898" lon="5.38583">
        <ele>334.892</ele>
        <time>2018-06-17T07:54:52Z</time>
      </trkpt>
      <trkpt lat="45.78898" lon="5.38556">
        <ele>333.962</ele>
        <time>2018-06-17T07:54:59Z</time>
      </trkpt>
      <trkpt lat="45.78898" lon="5.38537">
        <ele>332.68</ele>
        <time>2018-06-17T07:55:02Z</time>
      </trkpt>
      <trkpt lat="45.78898" lon="5.3852">
        <ele>330.574</ele>
        <time>2018-06-17T07:55:04Z</time>
      </trkpt>
      <trkpt lat="45.789" lon="5.38484">
        <ele>328.597</ele>
        <time>2018-06-17T07:55:08Z</time>
      </trkpt>
      <trkpt lat="45.78901" lon="5.38463">
        <ele>328.24</ele>
        <time>2018-06-17T07:55:10Z</time>
      </trkpt>
      <trkpt lat="45.78907" lon="5.38411">
        <ele>326.348</ele>
        <time>2018-06-17T07:55:16Z</time>
      </trkpt>
      <trkpt lat="45.78914" lon="5.38362">
        <ele>324.5</ele>
        <time>2018-06-17T07:55:22Z</time>
      </trkpt>
      <trkpt lat="45.78919" lon="5.38322">
        <ele>323.097</ele>
        <time>2018-06-17T07:55:29Z</time>
      </trkpt>
      <trkpt lat="45.78924" lon="5.38304">
        <ele>323.954</ele>
        <time>2018-06-17T07:55:34Z</time>
      </trkpt>
      <trkpt lat="45.78926" lon="5.38295">
        <ele>323.976</ele>
        <time>2018-06-17T07:55:46Z</time>
      </trkpt>
      <trkpt lat="45.78926" lon="5.38275">
        <ele>326.006</ele>
        <time>2018-06-17T07:58:34Z</time>
      </trkpt>
      <trkpt lat="45.78922" lon="5.38248">
        <ele>326.952</ele>
        <time>2018-06-17T07:58:41Z</time>
      </trkpt>
      <trkpt lat="45.7892" lon="5.38228">
        <ele>327.449</ele>
        <time>2018-06-17T07:58:47Z</time>
      </trkpt>
      <trkpt lat="45.78917" lon="5.3821">
        <ele>328.857</ele>
        <time>2018-06-17T07:58:52Z</time>
      </trkpt>
      <trkpt lat="45.78912" lon="5.38174">
        <ele>329.714</ele>
        <time>2018-06-17T07:59:03Z</time>
      </trkpt>
      <trkpt lat="45.78911" lon="5.38167">
        <ele>330.247</ele>
        <time>2018-06-17T07:59:06Z</time>
      </trkpt>
      <trkpt lat="45.78907" lon="5.38158">
        <ele>329.529</ele>
        <time>2018-06-17T07:59:20Z</time>
      </trkpt>
      <trkpt lat="45.78896" lon="5.38129">
        <ele>329.062</ele>
        <time>2018-06-17T07:59:29Z</time>
      </trkpt>
      <trkpt lat="45.78887" lon="5.38104">
        <ele>327.825</ele>
        <time>2018-06-17T07:59:36Z</time>
      </trkpt>
      <trkpt lat="45.78875" lon="5.38055">
        <ele>328.613</ele>
        <time>2018-06-17T08:01:02Z</time>
      </trkpt>
      <trkpt lat="45.78871" lon="5.38042">
        <ele>328.475</ele>
        <time>2018-06-17T08:01:06Z</time>
      </trkpt>
      <trkpt lat="45.78861" lon="5.3801">
        <ele>327.5</ele>
        <time>2018-06-17T08:01:15Z</time>
      </trkpt>
      <trkpt lat="45.78849" lon="5.37971">
        <ele>327.437</ele>
        <time>2018-06-17T08:01:23Z</time>
      </trkpt>
      <trkpt lat="45.78846" lon="5.37948">
        <ele>327.992</ele>
        <time>2018-06-17T08:01:30Z</time>
      </trkpt>
      <trkpt lat="45.78854" lon="5.37925">
        <ele>327.931</ele>
        <time>2018-06-17T08:01:36Z</time>
      </trkpt>
      <trkpt lat="45.78855" lon="5.37907">
        <ele>327.881</ele>
        <time>2018-06-17T08:01:42Z</time>
      </trkpt>
      <trkpt lat="45.78854" lon="5.37878">
        <ele>328.126</ele>
        <time>2018-06-17T08:01:49Z</time>
      </trkpt>
      <trkpt lat="45.78853" lon="5.37867">
        <ele>327.743</ele>
        <time>2018-06-17T08:01:51Z</time>
      </trkpt>
      <trkpt lat="45.78844" lon="5.37812">
        <ele>328.378</ele>
        <time>2018-06-17T08:02:01Z</time>
      </trkpt>
      <trkpt lat="45.78839" lon="5.37783">
        <ele>327.563</ele>
        <time>2018-06-17T08:02:07Z</time>
      </trkpt>
      <trkpt lat="45.78838" lon="5.37763">
        <ele>326.244</ele>
        <time>2018-06-17T08:02:10Z</time>
      </trkpt>
      <trkpt lat="45.78838" lon="5.37757">
        <ele>326.244</ele>
        <time>2018-06-17T08:02:11Z</time>
      </trkpt>
      <trkpt lat="45.78844" lon="5.37719">
        <ele>326.276</ele>
        <time>2018-06-17T08:02:19Z</time>
      </trkpt>
      <trkpt lat="45.78845" lon="5.37716">
        <ele>326.278</ele>
        <time>2018-06-17T08:02:20Z</time>
      </trkpt>
      <trkpt lat="45.78854" lon="5.37698">
        <ele>327.318</ele>
        <time>2018-06-17T08:02:26Z</time>
      </trkpt>
      <trkpt lat="45.78859" lon="5.37687">
        <ele>328.029</ele>
        <time>2018-06-17T08:02:31Z</time>
      </trkpt>
      <trkpt lat="45.78856" lon="5.37653">
        <ele>329.017</ele>
        <time>2018-06-17T08:02:41Z</time>
      </trkpt>
      <trkpt lat="45.7885" lon="5.37612">
        <ele>329.135</ele>
        <time>2018-06-17T08:02:52Z</time>
      </trkpt>
      <trkpt lat="45.78844" lon="5.37574">
        <ele>330.67</ele>
        <time>2018-06-17T08:03:02Z</time>
      </trkpt>
      <trkpt lat="45.78839" lon="5.37541">
        <ele>332.04</ele>
        <time>2018-06-17T08:03:12Z</time>
      </trkpt>
      <trkpt lat="45.78833" lon="5.37505">
        <ele>332.903</ele>
        <time>2018-06-17T08:03:22Z</time>
      </trkpt>
      <trkpt lat="45.78826" lon="5.37464">
        <ele>334.738</ele>
        <time>2018-06-17T08:03:34Z</time>
      </trkpt>
      <trkpt lat="45.78819" lon="5.37431">
        <ele>335.694</ele>
        <time>2018-06-17T08:03:44Z</time>
      </trkpt>
      <trkpt lat="45.78809" lon="5.37411">
        <ele>335.644</ele>
        <time>2018-06-17T08:03:52Z</time>
      </trkpt>
      <trkpt lat="45.78798" lon="5.37391">
        <ele>335.791</ele>
        <time>2018-06-17T08:04:01Z</time>
      </trkpt>
      <trkpt lat="45.78784" lon="5.37403">
        <ele>334.94</ele>
        <time>2018-06-17T08:06:09Z</time>
      </trkpt>
      <trkpt lat="45.78757" lon="5.37429">
        <ele>333.561</ele>
        <time>2018-06-17T08:06:17Z</time>
      </trkpt>
      <trkpt lat="45.78737" lon="5.37447">
        <ele>334.166</ele>
        <time>2018-06-17T08:06:25Z</time>
      </trkpt>
      <trkpt lat="45.78712" lon="5.37471">
        <ele>336.004</ele>
        <time>2018-06-17T08:06:38Z</time>
      </trkpt>
      <trkpt lat="45.787" lon="5.37484">
        <ele>334.675</ele>
        <time>2018-06-17T08:06:43Z</time>
      </trkpt>
      <trkpt lat="45.78668" lon="5.37517">
        <ele>334.364</ele>
        <time>2018-06-17T08:06:54Z</time>
      </trkpt>
      <trkpt lat="45.7865" lon="5.37535">
        <ele>331.802</ele>
        <time>2018-06-17T08:07:01Z</time>
      </trkpt>
      <trkpt lat="45.78628" lon="5.37568">
        <ele>331.075</ele>
        <time>2018-06-17T08:07:10Z</time>
      </trkpt>
      <trkpt lat="45.78609" lon="5.37589">
        <ele>331.477</ele>
        <time>2018-06-17T08:07:18Z</time>
      </trkpt>
      <trkpt lat="45.78584" lon="5.37614">
        <ele>332.451</ele>
        <time>2018-06-17T08:07:28Z</time>
      </trkpt>
      <trkpt lat="45.78556" lon="5.37642">
        <ele>331.94</ele>
        <time>2018-06-17T08:07:38Z</time>
      </trkpt>
      <trkpt lat="45.78518" lon="5.37678">
        <ele>330.62</ele>
        <time>2018-06-17T08:07:50Z</time>
      </trkpt>
      <trkpt lat="45.78515" lon="5.37682">
        <ele>330.62</ele>
        <time>2018-06-17T08:07:51Z</time>
      </trkpt>
      <trkpt lat="45.78504" lon="5.37692">
        <ele>330.431</ele>
        <time>2018-06-17T08:07:54Z</time>
      </trkpt>
      <trkpt lat="45.78477" lon="5.37718">
        <ele>328.82</ele>
        <time>2018-06-17T08:08:03Z</time>
      </trkpt>
      <trkpt lat="45.78449" lon="5.37743">
        <ele>327.893</ele>
        <time>2018-06-17T08:08:14Z</time>
      </trkpt>
      <trkpt lat="45.7843" lon="5.3776">
        <ele>327.031</ele>
        <time>2018-06-17T08:08:22Z</time>
      </trkpt>
      <trkpt lat="45.78406" lon="5.37779">
        <ele>325.596</ele>
        <time>2018-06-17T08:08:32Z</time>
      </trkpt>
      <trkpt lat="45.78393" lon="5.37786">
        <ele>324.132</ele>
        <time>2018-06-17T08:08:38Z</time>
      </trkpt>
      <trkpt lat="45.78378" lon="5.37804">
        <ele>323.072</ele>
        <time>2018-06-17T08:08:46Z</time>
      </trkpt>
      <trkpt lat="45.78366" lon="5.37824">
        <ele>321.287</ele>
        <time>2018-06-17T08:08:55Z</time>
      </trkpt>
      <trkpt lat="45.78349" lon="5.37834">
        <ele>318.921</ele>
        <time>2018-06-17T08:09:02Z</time>
      </trkpt>
      <trkpt lat="45.78325" lon="5.37845">
        <ele>317.733</ele>
        <time>2018-06-17T08:09:11Z</time>
      </trkpt>
      <trkpt lat="45.78302" lon="5.3785">
        <ele>317.023</ele>
        <time>2018-06-17T08:09:19Z</time>
      </trkpt>
      <trkpt lat="45.78289" lon="5.37853">
        <ele>316.65</ele>
        <time>2018-06-17T08:09:23Z</time>
      </trkpt>
      <trkpt lat="45.78266" lon="5.37874">
        <ele>315.822</ele>
        <time>2018-06-17T08:09:31Z</time>
      </trkpt>
      <trkpt lat="45.7825" lon="5.37888">
        <ele>314.601</ele>
        <time>2018-06-17T08:09:36Z</time>
      </trkpt>
      <trkpt lat="45.78245" lon="5.37891">
        <ele>314.869</ele>
        <time>2018-06-17T08:09:38Z</time>
      </trkpt>
      <trkpt lat="45.78233" lon="5.37895">
        <ele>315.551</ele>
        <time>2018-06-17T08:09:42Z</time>
      </trkpt>
      <trkpt lat="45.78215" lon="5.37885">
        <ele>314.312</ele>
        <time>2018-06-17T08:09:48Z</time>
      </trkpt>
      <trkpt lat="45.78211" lon="5.37881">
        <ele>314.315</ele>
        <time>2018-06-17T08:09:49Z</time>
      </trkpt>
      <trkpt lat="45.78177" lon="5.37871">
        <ele>313.251</ele>
        <time>2018-06-17T08:09:57Z</time>
      </trkpt>
      <trkpt lat="45.78161" lon="5.37858">
        <ele>312.684</ele>
        <time>2018-06-17T08:10:04Z</time>
      </trkpt>
      <trkpt lat="45.78138" lon="5.37867">
        <ele>311.798</ele>
        <time>2018-06-17T08:10:11Z</time>
      </trkpt>
      <trkpt lat="45.78114" lon="5.37884">
        <ele>311.211</ele>
        <time>2018-06-17T08:10:20Z</time>
      </trkpt>
      <trkpt lat="45.78091" lon="5.37898">
        <ele>311.214</ele>
        <time>2018-06-17T08:10:29Z</time>
      </trkpt>
      <trkpt lat="45.78069" lon="5.3791">
        <ele>311.484</ele>
        <time>2018-06-17T08:10:37Z</time>
      </trkpt>
      <trkpt lat="45.78051" lon="5.37924">
        <ele>310.358</ele>
        <time>2018-06-17T08:10:43Z</time>
      </trkpt>
      <trkpt lat="45.7804" lon="5.37941">
        <ele>309.633</ele>
        <time>2018-06-17T08:10:47Z</time>
      </trkpt>
      <trkpt lat="45.78028" lon="5.37985">
        <ele>308.058</ele>
        <time>2018-06-17T08:10:56Z</time>
      </trkpt>
      <trkpt lat="45.78025" lon="5.37998">
        <ele>306.824</ele>
        <time>2018-06-17T08:10:59Z</time>
      </trkpt>
      <trkpt lat="45.7801" lon="5.38023">
        <ele>305.456</ele>
        <time>2018-06-17T08:11:06Z</time>
      </trkpt>
      <trkpt lat="45.77994" lon="5.38034">
        <ele>304.335</ele>
        <time>2018-06-17T08:11:11Z</time>
      </trkpt>
      <trkpt lat="45.77979" lon="5.3804">
        <ele>304.249</ele>
        <time>2018-06-17T08:11:16Z</time>
      </trkpt>
      <trkpt lat="45.77977" lon="5.3804">
        <ele>304.251</ele>
        <time>2018-06-17T08:11:17Z</time>
      </trkpt>
      <trkpt lat="45.77964" lon="5.3805">
        <ele>305.464</ele>
        <time>2018-06-17T08:11:23Z</time>
      </trkpt>
      <trkpt lat="45.77944" lon="5.38073">
        <ele>304.154</ele>
        <time>2018-06-17T08:11:30Z</time>
      </trkpt>
      <trkpt lat="45.77926" lon="5.38097">
        <ele>302.859</ele>
        <time>2018-06-17T08:11:36Z</time>
      </trkpt>
      <trkpt lat="45.77913" lon="5.38118">
        <ele>301.104</ele>
        <time>2018-06-17T08:11:41Z</time>
      </trkpt>
      <trkpt lat="45.77896" lon="5.38139">
        <ele>301.047</ele>
        <time>2018-06-17T08:11:47Z</time>
      </trkpt>
      <trkpt lat="45.77882" lon="5.38149">
        <ele>300.083</ele>
        <time>2018-06-17T08:11:51Z</time>
      </trkpt>
      <trkpt lat="45.77871" lon="5.38175">
        <ele>298.854</ele>
        <time>2018-06-17T08:11:56Z</time>
      </trkpt>
      <trkpt lat="45.77866" lon="5.382">
        <ele>299.024</ele>
        <time>2018-06-17T08:12:00Z</time>
      </trkpt>
      <trkpt lat="45.77848" lon="5.38227">
        <ele>299.197</ele>
        <time>2018-06-17T08:12:07Z</time>
      </trkpt>
      <trkpt lat="45.77832" lon="5.38238">
        <ele>298.269</ele>
        <time>2018-06-17T08:12:12Z</time>
      </trkpt>
      <trkpt lat="45.77808" lon="5.38244">
        <ele>297.432</ele>
        <time>2018-06-17T08:12:19Z</time>
      </trkpt>
      <trkpt lat="45.77802" lon="5.38244">
        <ele>297.3</ele>
        <time>2018-06-17T08:12:21Z</time>
      </trkpt>
      <trkpt lat="45.77773" lon="5.38242">
        <ele>298.824</ele>
        <time>2018-06-17T08:12:30Z</time>
      </trkpt>
      <trkpt lat="45.77755" lon="5.38242">
        <ele>299.612</ele>
        <time>2018-06-17T08:12:37Z</time>
      </trkpt>
      <trkpt lat="45.77736" lon="5.38242">
        <ele>301.64</ele>
        <time>2018-06-17T08:12:46Z</time>
      </trkpt>
      <trkpt lat="45.7772" lon="5.38242">
        <ele>303.064</ele>
        <time>2018-06-17T08:12:56Z</time>
      </trkpt>
      <trkpt lat="45.77703" lon="5.38242">
        <ele>304.055</ele>
        <time>2018-06-17T08:13:08Z</time>
      </trkpt>
      <trkpt lat="45.77692" lon="5.38244">
        <ele>304.296</ele>
        <time>2018-06-17T08:15:12Z</time>
      </trkpt>
      <trkpt lat="45.7768" lon="5.38222">
        <ele>303.541</ele>
        <time>2018-06-17T08:15:17Z</time>
      </trkpt>
      <trkpt lat="45.77663" lon="5.382">
        <ele>301.662</ele>
        <time>2018-06-17T08:15:23Z</time>
      </trkpt>
      <trkpt lat="45.77658" lon="5.38192">
        <ele>301.452</ele>
        <time>2018-06-17T08:15:24Z</time>
      </trkpt>
      <trkpt lat="45.77624" lon="5.38153">
        <ele>299.637</ele>
        <time>2018-06-17T08:15:30Z</time>
      </trkpt>
      <trkpt lat="45.77609" lon="5.38141">
        <ele>298.863</ele>
        <time>2018-06-17T08:15:32Z</time>
      </trkpt>
      <trkpt lat="45.77591" lon="5.38129">
        <ele>298.673</ele>
        <time>2018-06-17T08:15:34Z</time>
      </trkpt>
      <trkpt lat="45.77542" lon="5.381">
        <ele>299.064</ele>
        <time>2018-06-17T08:15:42Z</time>
      </trkpt>
      <trkpt lat="45.77517" lon="5.38099">
        <ele>298.969</ele>
        <time>2018-06-17T08:15:47Z</time>
      </trkpt>
      <trkpt lat="45.77499" lon="5.38111">
        <ele>297.915</ele>
        <time>2018-06-17T08:15:50Z</time>
      </trkpt>
      <trkpt lat="45.77479" lon="5.38129">
        <ele>294.894</ele>
        <time>2018-06-17T08:15:53Z</time>
      </trkpt>
      <trkpt lat="45.77467" lon="5.3814">
        <ele>293.251</ele>
        <time>2018-06-17T08:15:55Z</time>
      </trkpt>
      <trkpt lat="45.77442" lon="5.38139">
        <ele>290.986</ele>
        <time>2018-06-17T08:16:00Z</time>
      </trkpt>
      <trkpt lat="45.7744" lon="5.38128">
        <ele>290.324</ele>
        <time>2018-06-17T08:16:01Z</time>
      </trkpt>
      <trkpt lat="45.7744" lon="5.38092">
        <ele>288.945</ele>
        <time>2018-06-17T08:16:06Z</time>
      </trkpt>
      <trkpt lat="45.77431" lon="5.38011">
        <ele>285.162</ele>
        <time>2018-06-17T08:16:14Z</time>
      </trkpt>
      <trkpt lat="45.77424" lon="5.37992">
        <ele>284.082</ele>
        <time>2018-06-17T08:16:16Z</time>
      </trkpt>
      <trkpt lat="45.77413" lon="5.37979">
        <ele>284.034</ele>
        <time>2018-06-17T08:16:18Z</time>
      </trkpt>
      <trkpt lat="45.77397" lon="5.37952">
        <ele>284.957</ele>
        <time>2018-06-17T08:16:24Z</time>
      </trkpt>
      <trkpt lat="45.77373" lon="5.37904">
        <ele>283.599</ele>
        <time>2018-06-17T08:16:33Z</time>
      </trkpt>
      <trkpt lat="45.77353" lon="5.37881">
        <ele>281.788</ele>
        <time>2018-06-17T08:16:37Z</time>
      </trkpt>
      <trkpt lat="45.77342" lon="5.37868">
        <ele>280.369</ele>
        <time>2018-06-17T08:16:39Z</time>
      </trkpt>
      <trkpt lat="45.77304" lon="5.3783">
        <ele>277.21</ele>
        <time>2018-06-17T08:16:45Z</time>
      </trkpt>
      <trkpt lat="45.77271" lon="5.37783">
        <ele>274.81</ele>
        <time>2018-06-17T08:16:51Z</time>
      </trkpt>
      <trkpt lat="45.77261" lon="5.37769">
        <ele>273.88</ele>
        <time>2018-06-17T08:16:53Z</time>
      </trkpt>
      <trkpt lat="45.77234" lon="5.37741">
        <ele>271.353</ele>
        <time>2018-06-17T08:16:57Z</time>
      </trkpt>
      <trkpt lat="45.77219" lon="5.37728">
        <ele>269.234</ele>
        <time>2018-06-17T08:16:59Z</time>
      </trkpt>
      <trkpt lat="45.77174" lon="5.37669">
        <ele>268.093</ele>
        <time>2018-06-17T08:17:06Z</time>
      </trkpt>
      <trkpt lat="45.77155" lon="5.37641">
        <ele>269.215</ele>
        <time>2018-06-17T08:17:10Z</time>
      </trkpt>
      <trkpt lat="45.77147" lon="5.37622">
        <ele>269.896</ele>
        <time>2018-06-17T08:17:15Z</time>
      </trkpt>
      <trkpt lat="45.77115" lon="5.37607">
        <ele>272.147</ele>
        <time>2018-06-17T08:17:24Z</time>
      </trkpt>
      <trkpt lat="45.77095" lon="5.37605">
        <ele>273.431</ele>
        <time>2018-06-17T08:17:33Z</time>
      </trkpt>
      <trkpt lat="45.7708" lon="5.37608">
        <ele>275.451</ele>
        <time>2018-06-17T08:17:44Z</time>
      </trkpt>
      <trkpt lat="45.77057" lon="5.37616">
        <ele>277.512</ele>
        <time>2018-06-17T08:18:00Z</time>
      </trkpt>
      <trkpt lat="45.77031" lon="5.37626">
        <ele>280.157</ele>
        <time>2018-06-17T08:18:18Z</time>
      </trkpt>
      <trkpt lat="45.77015" lon="5.37637">
        <ele>281.287</ele>
        <time>2018-06-17T08:18:29Z</time>
      </trkpt>
      <trkpt lat="45.76995" lon="5.37646">
        <ele>282.098</ele>
        <time>2018-06-17T08:18:41Z</time>
      </trkpt>
      <trkpt lat="45.76969" lon="5.37659">
        <ele>281.245</ele>
        <time>2018-06-17T08:18:51Z</time>
      </trkpt>
      <trkpt lat="45.76937" lon="5.37671">
        <ele>281.82</ele>
        <time>2018-06-17T08:19:03Z</time>
      </trkpt>
      <trkpt lat="45.76919" lon="5.37664">
        <ele>281.618</ele>
        <time>2018-06-17T08:19:09Z</time>
      </trkpt>
      <trkpt lat="45.76899" lon="5.37635">
        <ele>283.534</ele>
        <time>2018-06-17T08:19:18Z</time>
      </trkpt>
      <trkpt lat="45.76882" lon="5.37606">
        <ele>284.607</ele>
        <time>2018-06-17T08:19:28Z</time>
      </trkpt>
      <trkpt lat="45.76868" lon="5.3758">
        <ele>283.11</ele>
        <time>2018-06-17T08:19:35Z</time>
      </trkpt>
      <trkpt lat="45.76845" lon="5.37529">
        <ele>280.449</ele>
        <time>2018-06-17T08:19:45Z</time>
      </trkpt>
      <trkpt lat="45.76834" lon="5.37507">
        <ele>280.31</ele>
        <time>2018-06-17T08:19:49Z</time>
      </trkpt>
      <trkpt lat="45.76827" lon="5.37491">
        <ele>279.387</ele>
        <time>2018-06-17T08:19:52Z</time>
      </trkpt>
      <trkpt lat="45.76805" lon="5.37447">
        <ele>280.116</ele>
        <time>2018-06-17T08:20:02Z</time>
      </trkpt>
      <trkpt lat="45.76789" lon="5.37415">
        <ele>280.014</ele>
        <time>2018-06-17T08:20:11Z</time>
      </trkpt>
      <trkpt lat="45.76772" lon="5.37387">
        <ele>281.329</ele>
        <time>2018-06-17T08:20:21Z</time>
      </trkpt>
      <trkpt lat="45.76753" lon="5.37371">
        <ele>282.483</ele>
        <time>2018-06-17T08:20:30Z</time>
      </trkpt>
      <trkpt lat="45.76743" lon="5.37378">
        <ele>283.659</ele>
        <time>2018-06-17T08:20:36Z</time>
      </trkpt>
      <trkpt lat="45.76732" lon="5.37392">
        <ele>285.498</ele>
        <time>2018-06-17T08:20:45Z</time>
      </trkpt>
      <trkpt lat="45.76728" lon="5.37397">
        <ele>285.804</ele>
        <time>2018-06-17T08:20:49Z</time>
      </trkpt>
      <trkpt lat="45.76722" lon="5.37404">
        <ele>286.563</ele>
        <time>2018-06-17T08:20:54Z</time>
      </trkpt>
      <trkpt lat="45.7671" lon="5.37415">
        <ele>287.624</ele>
        <time>2018-06-17T08:21:03Z</time>
      </trkpt>
      <trkpt lat="45.76696" lon="5.37427">
        <ele>288.601</ele>
        <time>2018-06-17T08:21:12Z</time>
      </trkpt>
      <trkpt lat="45.7668" lon="5.37439">
        <ele>289.526</ele>
        <time>2018-06-17T08:21:22Z</time>
      </trkpt>
      <trkpt lat="45.76667" lon="5.37445">
        <ele>290.693</ele>
        <time>2018-06-17T08:21:30Z</time>
      </trkpt>
      <trkpt lat="45.76662" lon="5.37447">
        <ele>291.213</ele>
        <time>2018-06-17T08:21:41Z</time>
      </trkpt>
      <trkpt lat="45.76647" lon="5.37454">
        <ele>290.536</ele>
        <time>2018-06-17T08:23:58Z</time>
      </trkpt>
      <trkpt lat="45.76635" lon="5.37465">
        <ele>289.405</ele>
        <time>2018-06-17T08:24:05Z</time>
      </trkpt>
      <trkpt lat="45.76628" lon="5.37469">
        <ele>289.936</ele>
        <time>2018-06-17T08:24:33Z</time>
      </trkpt>
      <trkpt lat="45.76606" lon="5.37489">
        <ele>289.59</ele>
        <time>2018-06-17T08:24:44Z</time>
      </trkpt>
      <trkpt lat="45.76587" lon="5.37503">
        <ele>290.008</ele>
        <time>2018-06-17T08:24:53Z</time>
      </trkpt>
      <trkpt lat="45.7657" lon="5.37492">
        <ele>290.14</ele>
        <time>2018-06-17T08:24:59Z</time>
      </trkpt>
      <trkpt lat="45.76552" lon="5.37498">
        <ele>290.113</ele>
        <time>2018-06-17T08:25:06Z</time>
      </trkpt>
      <trkpt lat="45.76537" lon="5.37495">
        <ele>290.151</ele>
        <time>2018-06-17T08:25:13Z</time>
      </trkpt>
      <trkpt lat="45.76525" lon="5.37485">
        <ele>290.717</ele>
        <time>2018-06-17T08:25:20Z</time>
      </trkpt>
      <trkpt lat="45.76513" lon="5.37471">
        <ele>290.626</ele>
        <time>2018-06-17T08:25:27Z</time>
      </trkpt>
      <trkpt lat="45.76501" lon="5.37457">
        <ele>291.17</ele>
        <time>2018-06-17T08:25:33Z</time>
      </trkpt>
      <trkpt lat="45.76485" lon="5.37434">
        <ele>292.751</ele>
        <time>2018-06-17T08:25:43Z</time>
      </trkpt>
      <trkpt lat="45.76475" lon="5.37418">
        <ele>294.162</ele>
        <time>2018-06-17T08:25:52Z</time>
      </trkpt>
      <trkpt lat="45.76468" lon="5.37401">
        <ele>296.288</ele>
        <time>2018-06-17T08:26:01Z</time>
      </trkpt>
      <trkpt lat="45.76467" lon="5.37378">
        <ele>298.254</ele>
        <time>2018-06-17T08:26:12Z</time>
      </trkpt>
      <trkpt lat="45.76469" lon="5.37369">
        <ele>299.683</ele>
        <time>2018-06-17T08:26:16Z</time>
      </trkpt>
      <trkpt lat="45.76471" lon="5.37357">
        <ele>301.409</ele>
        <time>2018-06-17T08:26:24Z</time>
      </trkpt>
      <trkpt lat="45.76469" lon="5.37341">
        <ele>303.597</ele>
        <time>2018-06-17T08:26:44Z</time>
      </trkpt>
      <trkpt lat="45.76467" lon="5.37334">
        <ele>303.792</ele>
        <time>2018-06-17T08:26:46Z</time>
      </trkpt>
      <trkpt lat="45.76463" lon="5.37317">
        <ele>303.966</ele>
        <time>2018-06-17T08:26:54Z</time>
      </trkpt>
      <trkpt lat="45.76459" lon="5.37306">
        <ele>304.65</ele>
        <time>2018-06-17T08:27:00Z</time>
      </trkpt>
      <trkpt lat="45.76447" lon="5.37297">
        <ele>305.968</ele>
        <time>2018-06-17T08:27:08Z</time>
      </trkpt>
      <trkpt lat="45.76444" lon="5.37295">
        <ele>306.495</ele>
        <time>2018-06-17T08:27:12Z</time>
      </trkpt>
      <trkpt lat="45.76429" lon="5.37287">
        <ele>308.327</ele>
        <time>2018-06-17T08:27:22Z</time>
      </trkpt>
      <trkpt lat="45.7642" lon="5.37284">
        <ele>309.229</ele>
        <time>2018-06-17T08:27:28Z</time>
      </trkpt>
      <trkpt lat="45.76409" lon="5.37283">
        <ele>311.203</ele>
        <time>2018-06-17T08:27:36Z</time>
      </trkpt>
      <trkpt lat="45.76398" lon="5.37285">
        <ele>312.712</ele>
        <time>2018-06-17T08:27:44Z</time>
      </trkpt>
      <trkpt lat="45.76388" lon="5.37289">
        <ele>314.681</ele>
        <time>2018-06-17T08:27:53Z</time>
      </trkpt>
      <trkpt lat="45.76375" lon="5.373">
        <ele>317.354</ele>
        <time>2018-06-17T08:28:03Z</time>
      </trkpt>
      <trkpt lat="45.76363" lon="5.37306">
        <ele>319.105</ele>
        <time>2018-06-17T08:28:12Z</time>
      </trkpt>
      <trkpt lat="45.76352" lon="5.37311">
        <ele>321.141</ele>
        <time>2018-06-17T08:28:21Z</time>
      </trkpt>
      <trkpt lat="45.76339" lon="5.37317">
        <ele>323.591</ele>
        <time>2018-06-17T08:28:29Z</time>
      </trkpt>
      <trkpt lat="45.76328" lon="5.37322">
        <ele>325.663</ele>
        <time>2018-06-17T08:28:36Z</time>
      </trkpt>
      <trkpt lat="45.76303" lon="5.37324">
        <ele>330.159</ele>
        <time>2018-06-17T08:28:55Z</time>
      </trkpt>
      <trkpt lat="45.76291" lon="5.37322">
        <ele>332.037</ele>
        <time>2018-06-17T08:29:04Z</time>
      </trkpt>
      <trkpt lat="45.76284" lon="5.37317">
        <ele>332.876</ele>
        <time>2018-06-17T08:29:14Z</time>
      </trkpt>
      <trkpt lat="45.76259" lon="5.37305">
        <ele>333.886</ele>
        <time>2018-06-17T08:31:52Z</time>
      </trkpt>
      <trkpt lat="45.76254" lon="5.37304">
        <ele>334.108</ele>
        <time>2018-06-17T08:31:55Z</time>
      </trkpt>
      <trkpt lat="45.76239" lon="5.37305">
        <ele>333.486</ele>
        <time>2018-06-17T08:32:02Z</time>
      </trkpt>
      <trkpt lat="45.76225" lon="5.37309">
        <ele>333.678</ele>
        <time>2018-06-17T08:32:09Z</time>
      </trkpt>
      <trkpt lat="45.76208" lon="5.37315">
        <ele>333.492</ele>
        <time>2018-06-17T08:32:16Z</time>
      </trkpt>
      <trkpt lat="45.76189" lon="5.37321">
        <ele>333.701</ele>
        <time>2018-06-17T08:32:23Z</time>
      </trkpt>
      <trkpt lat="45.76166" lon="5.3734">
        <ele>334.476</ele>
        <time>2018-06-17T08:32:33Z</time>
      </trkpt>
      <trkpt lat="45.76162" lon="5.37344">
        <ele>335.181</ele>
        <time>2018-06-17T08:32:39Z</time>
      </trkpt>
      <trkpt lat="45.7616" lon="5.37345">
        <ele>334.909</ele>
        <time>2018-06-17T08:32:49Z</time>
      </trkpt>
      <trkpt lat="45.76148" lon="5.37355">
        <ele>335.454</ele>
        <time>2018-06-17T08:32:56Z</time>
      </trkpt>
      <trkpt lat="45.76131" lon="5.37359">
        <ele>337.247</ele>
        <time>2018-06-17T08:33:04Z</time>
      </trkpt>
      <trkpt lat="45.76113" lon="5.37366">
        <ele>338.899</ele>
        <time>2018-06-17T08:33:12Z</time>
      </trkpt>
      <trkpt lat="45.76095" lon="5.37375">
        <ele>340.979</ele>
        <time>2018-06-17T08:33:20Z</time>
      </trkpt>
      <trkpt lat="45.76086" lon="5.37381">
        <ele>342.081</ele>
        <time>2018-06-17T08:33:25Z</time>
      </trkpt>
      <trkpt lat="45.76068" lon="5.37396">
        <ele>342.832</ele>
        <time>2018-06-17T08:33:34Z</time>
      </trkpt>
      <trkpt lat="45.7606" lon="5.37404">
        <ele>342.928</ele>
        <time>2018-06-17T08:33:38Z</time>
      </trkpt>
      <trkpt lat="45.76035" lon="5.37409">
        <ele>342.306</ele>
        <time>2018-06-17T08:33:49Z</time>
      </trkpt>
      <trkpt lat="45.76016" lon="5.37411">
        <ele>341.664</ele>
        <time>2018-06-17T08:33:57Z</time>
      </trkpt>
      <trkpt lat="45.75997" lon="5.37415">
        <ele>341.101</ele>
        <time>2018-06-17T08:34:04Z</time>
      </trkpt>
      <trkpt lat="45.7597" lon="5.37416">
        <ele>340.296</ele>
        <time>2018-06-17T08:34:13Z</time>
      </trkpt>
      <trkpt lat="45.75957" lon="5.37417">
        <ele>340.647</ele>
        <time>2018-06-17T08:34:18Z</time>
      </trkpt>
      <trkpt lat="45.75921" lon="5.37422">
        <ele>340.724</ele>
        <time>2018-06-17T08:34:27Z</time>
      </trkpt>
      <trkpt lat="45.75898" lon="5.37422">
        <ele>340.524</ele>
        <time>2018-06-17T08:34:34Z</time>
      </trkpt>
      <trkpt lat="45.75879" lon="5.37422">
        <ele>339.859</ele>
        <time>2018-06-17T08:34:40Z</time>
      </trkpt>
      <trkpt lat="45.75866" lon="5.37421">
        <ele>340.109</ele>
        <time>2018-06-17T08:34:45Z</time>
      </trkpt>
      <trkpt lat="45.75849" lon="5.37418">
        <ele>340.275</ele>
        <time>2018-06-17T08:34:51Z</time>
      </trkpt>
      <trkpt lat="45.75834" lon="5.37414">
        <ele>340.232</ele>
        <time>2018-06-17T08:34:56Z</time>
      </trkpt>
      <trkpt lat="45.75811" lon="5.37409">
        <ele>341.205</ele>
        <time>2018-06-17T08:35:01Z</time>
      </trkpt>
      <trkpt lat="45.75789" lon="5.37393">
        <ele>341.219</ele>
        <time>2018-06-17T08:35:08Z</time>
      </trkpt>
      <trkpt lat="45.75773" lon="5.3738">
        <ele>340.692</ele>
        <time>2018-06-17T08:35:14Z</time>
      </trkpt>
      <trkpt lat="45.75739" lon="5.37367">
        <ele>340.51</ele>
        <time>2018-06-17T08:35:23Z</time>
      </trkpt>
      <trkpt lat="45.75719" lon="5.37378">
        <ele>339.884</ele>
        <time>2018-06-17T08:35:31Z</time>
      </trkpt>
      <trkpt lat="45.75713" lon="5.37382">
        <ele>340.041</ele>
        <time>2018-06-17T08:35:35Z</time>
      </trkpt>
      <trkpt lat="45.75699" lon="5.3739">
        <ele>339.496</ele>
        <time>2018-06-17T08:35:42Z</time>
      </trkpt>
      <trkpt lat="45.75685" lon="5.37395">
        <ele>338.96</ele>
        <time>2018-06-17T08:35:46Z</time>
      </trkpt>
      <trkpt lat="45.75668" lon="5.37401">
        <ele>338.587</ele>
        <time>2018-06-17T08:35:50Z</time>
      </trkpt>
      <trkpt lat="45.75665" lon="5.37403">
        <ele>338.712</ele>
        <time>2018-06-17T08:35:55Z</time>
      </trkpt>
      <trkpt lat="45.75648" lon="5.37414">
        <ele>338.465</ele>
        <time>2018-06-17T08:36:02Z</time>
      </trkpt>
      <trkpt lat="45.75636" lon="5.37421">
        <ele>338.661</ele>
        <time>2018-06-17T08:36:07Z</time>
      </trkpt>
      <trkpt lat="45.7562" lon="5.37423">
        <ele>338.603</ele>
        <time>2018-06-17T08:36:14Z</time>
      </trkpt>
      <trkpt lat="45.75606" lon="5.37424">
        <ele>338.49</ele>
        <time>2018-06-17T08:36:20Z</time>
      </trkpt>
      <trkpt lat="45.75603" lon="5.37425">
        <ele>338.394</ele>
        <time>2018-06-17T08:36:21Z</time>
      </trkpt>
      <trkpt lat="45.75589" lon="5.37425">
        <ele>338.522</ele>
        <time>2018-06-17T08:36:27Z</time>
      </trkpt>
      <trkpt lat="45.75567" lon="5.37429">
        <ele>338.442</ele>
        <time>2018-06-17T08:36:34Z</time>
      </trkpt>
      <trkpt lat="45.75548" lon="5.37429">
        <ele>338.647</ele>
        <time>2018-06-17T08:36:40Z</time>
      </trkpt>
      <trkpt lat="45.75535" lon="5.37427">
        <ele>338.803</ele>
        <time>2018-06-17T08:36:45Z</time>
      </trkpt>
      <trkpt lat="45.75521" lon="5.37425">
        <ele>339.375</ele>
        <time>2018-06-17T08:36:50Z</time>
      </trkpt>
      <trkpt lat="45.75501" lon="5.3742">
        <ele>340.512</ele>
        <time>2018-06-17T08:36:56Z</time>
      </trkpt>
      <trkpt lat="45.75495" lon="5.3742">
        <ele>340.848</ele>
        <time>2018-06-17T08:37:02Z</time>
      </trkpt>
      <trkpt lat="45.75498" lon="5.37409">
        <ele>340.93</ele>
        <time>2018-06-17T08:40:14Z</time>
      </trkpt>
      <trkpt lat="45.755" lon="5.37402">
        <ele>341.265</ele>
        <time>2018-06-17T08:40:17Z</time>
      </trkpt>
      <trkpt lat="45.75502" lon="5.37386">
        <ele>341.529</ele>
        <time>2018-06-17T08:40:23Z</time>
      </trkpt>
      <trkpt lat="45.75505" lon="5.3737">
        <ele>341.955</ele>
        <time>2018-06-17T08:40:28Z</time>
      </trkpt>
      <trkpt lat="45.75507" lon="5.37352">
        <ele>342.718</ele>
        <time>2018-06-17T08:40:33Z</time>
      </trkpt>
      <trkpt lat="45.75508" lon="5.37349">
        <ele>342.706</ele>
        <time>2018-06-17T08:40:34Z</time>
      </trkpt>
      <trkpt lat="45.7549" lon="5.37319">
        <ele>342.874</ele>
        <time>2018-06-17T08:40:41Z</time>
      </trkpt>
      <trkpt lat="45.75494" lon="5.37296">
        <ele>343.856</ele>
        <time>2018-06-17T08:40:47Z</time>
      </trkpt>
      <trkpt lat="45.75497" lon="5.37282">
        <ele>344.709</ele>
        <time>2018-06-17T08:40:54Z</time>
      </trkpt>
      <trkpt lat="45.755" lon="5.37261">
        <ele>345.123</ele>
        <time>2018-06-17T08:40:59Z</time>
      </trkpt>
      <trkpt lat="45.75504" lon="5.37242">
        <ele>346.445</ele>
        <time>2018-06-17T08:41:06Z</time>
      </trkpt>
      <trkpt lat="45.75509" lon="5.37219">
        <ele>347.642</ele>
        <time>2018-06-17T08:41:13Z</time>
      </trkpt>
      <trkpt lat="45.75514" lon="5.37195">
        <ele>348.403</ele>
        <time>2018-06-17T08:41:23Z</time>
      </trkpt>
      <trkpt lat="45.75516" lon="5.37187">
        <ele>348.528</ele>
        <time>2018-06-17T08:41:27Z</time>
      </trkpt>
      <trkpt lat="45.75519" lon="5.37175">
        <ele>349.113</ele>
        <time>2018-06-17T08:41:31Z</time>
      </trkpt>
      <trkpt lat="45.75525" lon="5.37155">
        <ele>349.731</ele>
        <time>2018-06-17T08:41:39Z</time>
      </trkpt>
      <trkpt lat="45.75532" lon="5.37132">
        <ele>349.82</ele>
        <time>2018-06-17T08:41:47Z</time>
      </trkpt>
      <trkpt lat="45.75536" lon="5.37117">
        <ele>350.302</ele>
        <time>2018-06-17T08:41:52Z</time>
      </trkpt>
      <trkpt lat="45.75541" lon="5.37099">
        <ele>350.996</ele>
        <time>2018-06-17T08:41:58Z</time>
      </trkpt>
      <trkpt lat="45.75546" lon="5.37081">
        <ele>351.566</ele>
        <time>2018-06-17T08:42:04Z</time>
      </trkpt>
      <trkpt lat="45.75546" lon="5.37078">
        <ele>351.566</ele>
        <time>2018-06-17T08:42:05Z</time>
      </trkpt>
      <trkpt lat="45.75545" lon="5.37066">
        <ele>352.623</ele>
        <time>2018-06-17T08:42:10Z</time>
      </trkpt>
      <trkpt lat="45.75549" lon="5.37055">
        <ele>352.756</ele>
        <time>2018-06-17T08:42:13Z</time>
      </trkpt>
      <trkpt lat="45.75549" lon="5.37042">
        <ele>353.261</ele>
        <time>2018-06-17T08:42:18Z</time>
      </trkpt>
      <trkpt lat="45.75553" lon="5.37022">
        <ele>354.026</ele>
        <time>2018-06-17T08:42:25Z</time>
      </trkpt>
      <trkpt lat="45.75556" lon="5.37007">
        <ele>354.231</ele>
        <time>2018-06-17T08:42:30Z</time>
      </trkpt>
      <trkpt lat="45.7556" lon="5.37">
        <ele>354.468</ele>
        <time>2018-06-17T08:42:33Z</time>
      </trkpt>
      <trkpt lat="45.7556" lon="5.36994">
        <ele>354.495</ele>
        <time>2018-06-17T08:42:35Z</time>
      </trkpt>
      <trkpt lat="45.75564" lon="5.36973">
        <ele>355.103</ele>
        <time>2018-06-17T08:42:42Z</time>
      </trkpt>
      <trkpt lat="45.75567" lon="5.36962">
        <ele>355.379</ele>
        <time>2018-06-17T08:42:46Z</time>
      </trkpt>
      <trkpt lat="45.75574" lon="5.36934">
        <ele>356.242</ele>
        <time>2018-06-17T08:42:56Z</time>
      </trkpt>
      <trkpt lat="45.7558" lon="5.36916">
        <ele>356.418</ele>
        <time>2018-06-17T08:43:01Z</time>
      </trkpt>
      <trkpt lat="45.7558" lon="5.3691">
        <ele>356.201</ele>
        <time>2018-06-17T08:43:03Z</time>
      </trkpt>
      <trkpt lat="45.7558" lon="5.36902">
        <ele>356.738</ele>
        <time>2018-06-17T08:43:06Z</time>
      </trkpt>
      <trkpt lat="45.75583" lon="5.36877">
        <ele>357.114</ele>
        <time>2018-06-17T08:43:14Z</time>
      </trkpt>
      <trkpt lat="45.75585" lon="5.36853">
        <ele>357.32</ele>
        <time>2018-06-17T08:43:21Z</time>
      </trkpt>
      <trkpt lat="45.75595" lon="5.36819">
        <ele>357.964</ele>
        <time>2018-06-17T08:43:31Z</time>
      </trkpt>
      <trkpt lat="45.75596" lon="5.36814">
        <ele>358.282</ele>
        <time>2018-06-17T08:43:33Z</time>
      </trkpt>
      <trkpt lat="45.75598" lon="5.368">
        <ele>358.716</ele>
        <time>2018-06-17T08:43:38Z</time>
      </trkpt>
      <trkpt lat="45.75596" lon="5.36787">
        <ele>359.459</ele>
        <time>2018-06-17T08:43:43Z</time>
      </trkpt>
      <trkpt lat="45.75596" lon="5.3678">
        <ele>360.097</ele>
        <time>2018-06-17T08:43:46Z</time>
      </trkpt>
      <trkpt lat="45.75599" lon="5.36771">
        <ele>360.932</ele>
        <time>2018-06-17T08:43:50Z</time>
      </trkpt>
      <trkpt lat="45.75598" lon="5.36754">
        <ele>361.46</ele>
        <time>2018-06-17T08:43:57Z</time>
      </trkpt>
      <trkpt lat="45.75596" lon="5.36741">
        <ele>362.238</ele>
        <time>2018-06-17T08:44:02Z</time>
      </trkpt>
      <trkpt lat="45.75598" lon="5.36716">
        <ele>363.243</ele>
        <time>2018-06-17T08:44:11Z</time>
      </trkpt>
      <trkpt lat="45.75596" lon="5.36702">
        <ele>362.681</ele>
        <time>2018-06-17T08:44:15Z</time>
      </trkpt>
      <trkpt lat="45.75596" lon="5.36682">
        <ele>361.851</ele>
        <time>2018-06-17T08:44:19Z</time>
      </trkpt>
      <trkpt lat="45.75593" lon="5.36657">
        <ele>360.051</ele>
        <time>2018-06-17T08:44:24Z</time>
      </trkpt>
      <trkpt lat="45.7559" lon="5.36637">
        <ele>359.49</ele>
        <time>2018-06-17T08:44:29Z</time>
      </trkpt>
      <trkpt lat="45.75584" lon="5.36616">
        <ele>359.508</ele>
        <time>2018-06-17T08:44:32Z</time>
      </trkpt>
      <trkpt lat="45.75562" lon="5.36585">
        <ele>357.1</ele>
        <time>2018-06-17T08:44:40Z</time>
      </trkpt>
      <trkpt lat="45.75546" lon="5.36564">
        <ele>354.707</ele>
        <time>2018-06-17T08:44:45Z</time>
      </trkpt>
      <trkpt lat="45.75535" lon="5.36551">
        <ele>353.536</ele>
        <time>2018-06-17T08:44:50Z</time>
      </trkpt>
      <trkpt lat="45.75518" lon="5.36522">
        <ele>352.122</ele>
        <time>2018-06-17T08:45:00Z</time>
      </trkpt>
      <trkpt lat="45.75502" lon="5.36484">
        <ele>351.923</ele>
        <time>2018-06-17T08:45:10Z</time>
      </trkpt>
      <trkpt lat="45.75489" lon="5.36456">
        <ele>352.07</ele>
        <time>2018-06-17T08:45:20Z</time>
      </trkpt>
      <trkpt lat="45.75478" lon="5.36435">
        <ele>352.097</ele>
        <time>2018-06-17T08:48:31Z</time>
      </trkpt>
      <trkpt lat="45.75473" lon="5.36421">
        <ele>352.328</ele>
        <time>2018-06-17T08:48:36Z</time>
      </trkpt>
      <trkpt lat="45.7547" lon="5.36413">
        <ele>352.11</ele>
        <time>2018-06-17T08:48:40Z</time>
      </trkpt>
      <trkpt lat="45.75475" lon="5.36395">
        <ele>352.3</ele>
        <time>2018-06-17T08:48:44Z</time>
      </trkpt>
      <trkpt lat="45.75485" lon="5.36362">
        <ele>352.239</ele>
        <time>2018-06-17T08:48:52Z</time>
      </trkpt>
      <trkpt lat="45.75486" lon="5.36359">
        <ele>352.558</ele>
        <time>2018-06-17T08:48:53Z</time>
      </trkpt>
      <trkpt lat="45.75492" lon="5.36324">
        <ele>352.544</ele>
        <time>2018-06-17T08:49:00Z</time>
      </trkpt>
      <trkpt lat="45.75492" lon="5.36296">
        <ele>352.745</ele>
        <time>2018-06-17T08:49:06Z</time>
      </trkpt>
      <trkpt lat="45.75495" lon="5.36273">
        <ele>352.129</ele>
        <time>2018-06-17T08:49:11Z</time>
      </trkpt>
      <trkpt lat="45.75498" lon="5.36246">
        <ele>352.005</ele>
        <time>2018-06-17T08:49:17Z</time>
      </trkpt>
      <trkpt lat="45.755" lon="5.36201">
        <ele>351.564</ele>
        <time>2018-06-17T08:49:25Z</time>
      </trkpt>
      <trkpt lat="45.75499" lon="5.36168">
        <ele>351.774</ele>
        <time>2018-06-17T08:49:30Z</time>
      </trkpt>
      <trkpt lat="45.75499" lon="5.36129">
        <ele>351.456</ele>
        <time>2018-06-17T08:49:37Z</time>
      </trkpt>
      <trkpt lat="45.75497" lon="5.36093">
        <ele>351.36</ele>
        <time>2018-06-17T08:49:43Z</time>
      </trkpt>
      <trkpt lat="45.75495" lon="5.36073">
        <ele>351.451</ele>
        <time>2018-06-17T08:49:47Z</time>
      </trkpt>
      <trkpt lat="45.75493" lon="5.36055">
        <ele>351.761</ele>
        <time>2018-06-17T08:49:52Z</time>
      </trkpt>
      <trkpt lat="45.75491" lon="5.36041">
        <ele>352.196</ele>
        <time>2018-06-17T08:49:59Z</time>
      </trkpt>
      <trkpt lat="45.7549" lon="5.36025">
        <ele>354.723</ele>
        <time>2018-06-17T09:02:10Z</time>
      </trkpt>
      <trkpt lat="45.7549" lon="5.36002">
        <ele>355.457</ele>
        <time>2018-06-17T09:02:18Z</time>
      </trkpt>
      <trkpt lat="45.7549" lon="5.35995">
        <ele>355.617</ele>
        <time>2018-06-17T09:02:26Z</time>
      </trkpt>
      <trkpt lat="45.7549" lon="5.35979">
        <ele>355.196</ele>
        <time>2018-06-17T09:02:35Z</time>
      </trkpt>
      <trkpt lat="45.75512" lon="5.35964">
        <ele>354.901</ele>
        <time>2018-06-17T09:02:42Z</time>
      </trkpt>
      <trkpt lat="45.75523" lon="5.35956">
        <ele>355.017</ele>
        <time>2018-06-17T09:02:48Z</time>
      </trkpt>
      <trkpt lat="45.75533" lon="5.35948">
        <ele>354.337</ele>
        <time>2018-06-17T09:02:52Z</time>
      </trkpt>
      <trkpt lat="45.75569" lon="5.35938">
        <ele>354.368</ele>
        <time>2018-06-17T09:02:59Z</time>
      </trkpt>
      <trkpt lat="45.75585" lon="5.3594">
        <ele>354.623</ele>
        <time>2018-06-17T09:03:04Z</time>
      </trkpt>
      <trkpt lat="45.75602" lon="5.35942">
        <ele>354.36</ele>
        <time>2018-06-17T09:03:10Z</time>
      </trkpt>
      <trkpt lat="45.7562" lon="5.35949">
        <ele>354.59</ele>
        <time>2018-06-17T09:03:15Z</time>
      </trkpt>
      <trkpt lat="45.75656" lon="5.35962">
        <ele>354.791</ele>
        <time>2018-06-17T09:03:23Z</time>
      </trkpt>
      <trkpt lat="45.75668" lon="5.35963">
        <ele>354.911</ele>
        <time>2018-06-17T09:03:27Z</time>
      </trkpt>
      <trkpt lat="45.75675" lon="5.35964">
        <ele>354.842</ele>
        <time>2018-06-17T09:03:30Z</time>
      </trkpt>
      <trkpt lat="45.75693" lon="5.35968">
        <ele>355.242</ele>
        <time>2018-06-17T09:03:36Z</time>
      </trkpt>
      <trkpt lat="45.75699" lon="5.3597">
        <ele>355.049</ele>
        <time>2018-06-17T09:03:38Z</time>
      </trkpt>
      <trkpt lat="45.75717" lon="5.35975">
        <ele>355.157</ele>
        <time>2018-06-17T09:03:43Z</time>
      </trkpt>
      <trkpt lat="45.7574" lon="5.35974">
        <ele>355.073</ele>
        <time>2018-06-17T09:03:51Z</time>
      </trkpt>
      <trkpt lat="45.75755" lon="5.35969">
        <ele>355.198</ele>
        <time>2018-06-17T09:03:57Z</time>
      </trkpt>
      <trkpt lat="45.75766" lon="5.35965">
        <ele>354.93</ele>
        <time>2018-06-17T09:04:01Z</time>
      </trkpt>
      <trkpt lat="45.75774" lon="5.3596">
        <ele>355.456</ele>
        <time>2018-06-17T09:04:04Z</time>
      </trkpt>
      <trkpt lat="45.75783" lon="5.35954">
        <ele>355.348</ele>
        <time>2018-06-17T09:04:08Z</time>
      </trkpt>
      <trkpt lat="45.75787" lon="5.35951">
        <ele>355.528</ele>
        <time>2018-06-17T09:04:10Z</time>
      </trkpt>
      <trkpt lat="45.75794" lon="5.35948">
        <ele>355.726</ele>
        <time>2018-06-17T09:04:15Z</time>
      </trkpt>
      <trkpt lat="45.75801" lon="5.35944">
        <ele>355.086</ele>
        <time>2018-06-17T09:04:18Z</time>
      </trkpt>
      <trkpt lat="45.75811" lon="5.35939">
        <ele>355.314</ele>
        <time>2018-06-17T09:04:21Z</time>
      </trkpt>
      <trkpt lat="45.75827" lon="5.3593">
        <ele>355.359</ele>
        <time>2018-06-17T09:04:28Z</time>
      </trkpt>
      <trkpt lat="45.75831" lon="5.35927">
        <ele>355.475</ele>
        <time>2018-06-17T09:04:32Z</time>
      </trkpt>
      <trkpt lat="45.75838" lon="5.35921">
        <ele>355.989</ele>
        <time>2018-06-17T09:04:34Z</time>
      </trkpt>
      <trkpt lat="45.7584" lon="5.35918">
        <ele>355.769</ele>
        <time>2018-06-17T09:04:37Z</time>
      </trkpt>
      <trkpt lat="45.75901" lon="5.35888">
        <ele>354.2</ele>
        <time>2018-06-17T09:04:56Z</time>
      </trkpt>
      <trkpt lat="45.75913" lon="5.35881">
        <ele>354.545</ele>
        <time>2018-06-17T09:05:01Z</time>
      </trkpt>
      <trkpt lat="45.75935" lon="5.35866">
        <ele>354.35</ele>
        <time>2018-06-17T09:05:08Z</time>
      </trkpt>
      <trkpt lat="45.75943" lon="5.35863">
        <ele>354.502</ele>
        <time>2018-06-17T09:05:13Z</time>
      </trkpt>
      <trkpt lat="45.75948" lon="5.3586">
        <ele>354.541</ele>
        <time>2018-06-17T09:05:21Z</time>
      </trkpt>
      <trkpt lat="45.75957" lon="5.35856">
        <ele>354.975</ele>
        <time>2018-06-17T09:05:29Z</time>
      </trkpt>
      <trkpt lat="45.75961" lon="5.3585">
        <ele>355.262</ele>
        <time>2018-06-17T09:05:45Z</time>
      </trkpt>
      <trkpt lat="45.75964" lon="5.35848">
        <ele>355.419</ele>
        <time>2018-06-17T09:05:47Z</time>
      </trkpt>
      <trkpt lat="45.75969" lon="5.35841">
        <ele>355.221</ele>
        <time>2018-06-17T09:05:54Z</time>
      </trkpt>
      <trkpt lat="45.75971" lon="5.3584">
        <ele>355.437</ele>
        <time>2018-06-17T09:05:56Z</time>
      </trkpt>
      <trkpt lat="45.7599" lon="5.35828">
        <ele>356.23</ele>
        <time>2018-06-17T09:06:07Z</time>
      </trkpt>
      <trkpt lat="45.76009" lon="5.35817">
        <ele>356.621</ele>
        <time>2018-06-17T09:06:16Z</time>
      </trkpt>
      <trkpt lat="45.76021" lon="5.35807">
        <ele>356.594</ele>
        <time>2018-06-17T09:06:25Z</time>
      </trkpt>
      <trkpt lat="45.7603" lon="5.35801">
        <ele>356.007</ele>
        <time>2018-06-17T09:06:33Z</time>
      </trkpt>
      <trkpt lat="45.76033" lon="5.35797">
        <ele>356.513</ele>
        <time>2018-06-17T09:06:50Z</time>
      </trkpt>
      <trkpt lat="45.76047" lon="5.35786">
        <ele>355.62</ele>
        <time>2018-06-17T09:06:56Z</time>
      </trkpt>
      <trkpt lat="45.76055" lon="5.35787">
        <ele>356.42</ele>
        <time>2018-06-17T09:07:03Z</time>
      </trkpt>
      <trkpt lat="45.76063" lon="5.35795">
        <ele>355.738</ele>
        <time>2018-06-17T09:08:02Z</time>
      </trkpt>
      <trkpt lat="45.76077" lon="5.35813">
        <ele>355.292</ele>
        <time>2018-06-17T09:08:11Z</time>
      </trkpt>
      <trkpt lat="45.76086" lon="5.35825">
        <ele>355.898</ele>
        <time>2018-06-17T09:08:16Z</time>
      </trkpt>
      <trkpt lat="45.76102" lon="5.35835">
        <ele>356.571</ele>
        <time>2018-06-17T09:08:23Z</time>
      </trkpt>
      <trkpt lat="45.76122" lon="5.35837">
        <ele>357.095</ele>
        <time>2018-06-17T09:08:31Z</time>
      </trkpt>
      <trkpt lat="45.76143" lon="5.35843">
        <ele>356.807</ele>
        <time>2018-06-17T09:08:38Z</time>
      </trkpt>
      <trkpt lat="45.76161" lon="5.35869">
        <ele>355.777</ele>
        <time>2018-06-17T09:08:45Z</time>
      </trkpt>
      <trkpt lat="45.76184" lon="5.35903">
        <ele>355.702</ele>
        <time>2018-06-17T09:08:54Z</time>
      </trkpt>
      <trkpt lat="45.76203" lon="5.35937">
        <ele>356.182</ele>
        <time>2018-06-17T09:09:02Z</time>
      </trkpt>
      <trkpt lat="45.76225" lon="5.35978">
        <ele>355.25</ele>
        <time>2018-06-17T09:09:12Z</time>
      </trkpt>
      <trkpt lat="45.7623" lon="5.36008">
        <ele>354.934</ele>
        <time>2018-06-17T09:09:18Z</time>
      </trkpt>
      <trkpt lat="45.76229" lon="5.3605">
        <ele>354.318</ele>
        <time>2018-06-17T09:09:26Z</time>
      </trkpt>
      <trkpt lat="45.76227" lon="5.36078">
        <ele>354.02</ele>
        <time>2018-06-17T09:09:34Z</time>
      </trkpt>
      <trkpt lat="45.76226" lon="5.36089">
        <ele>354.038</ele>
        <time>2018-06-17T09:10:35Z</time>
      </trkpt>
      <trkpt lat="45.76228" lon="5.36122">
        <ele>354.453</ele>
        <time>2018-06-17T09:10:43Z</time>
      </trkpt>
      <trkpt lat="45.76231" lon="5.3613">
        <ele>354.37</ele>
        <time>2018-06-17T09:10:45Z</time>
      </trkpt>
      <trkpt lat="45.76238" lon="5.36137">
        <ele>355.094</ele>
        <time>2018-06-17T09:10:50Z</time>
      </trkpt>
      <trkpt lat="45.76241" lon="5.36135">
        <ele>354.435</ele>
        <time>2018-06-17T09:10:51Z</time>
      </trkpt>
      <trkpt lat="45.76269" lon="5.36108">
        <ele>355.214</ele>
        <time>2018-06-17T09:11:00Z</time>
      </trkpt>
      <trkpt lat="45.76308" lon="5.36076">
        <ele>356.487</ele>
        <time>2018-06-17T09:11:11Z</time>
      </trkpt>
      <trkpt lat="45.76338" lon="5.36063">
        <ele>358.005</ele>
        <time>2018-06-17T09:11:20Z</time>
      </trkpt>
      <trkpt lat="45.76362" lon="5.36052">
        <ele>359.803</ele>
        <time>2018-06-17T09:11:30Z</time>
      </trkpt>
      <trkpt lat="45.76369" lon="5.36047">
        <ele>360.422</ele>
        <time>2018-06-17T09:11:33Z</time>
      </trkpt>
      <trkpt lat="45.76386" lon="5.36034">
        <ele>361.155</ele>
        <time>2018-06-17T09:11:42Z</time>
      </trkpt>
      <trkpt lat="45.7641" lon="5.36018">
        <ele>362.634</ele>
        <time>2018-06-17T09:11:52Z</time>
      </trkpt>
      <trkpt lat="45.7643" lon="5.36006">
        <ele>364.856</ele>
        <time>2018-06-17T09:12:01Z</time>
      </trkpt>
      <trkpt lat="45.76449" lon="5.35995">
        <ele>365.568</ele>
        <time>2018-06-17T09:12:10Z</time>
      </trkpt>
      <trkpt lat="45.76479" lon="5.35976">
        <ele>367.716</ele>
        <time>2018-06-17T09:12:24Z</time>
      </trkpt>
      <trkpt lat="45.765" lon="5.35961">
        <ele>368.867</ele>
        <time>2018-06-17T09:12:34Z</time>
      </trkpt>
      <trkpt lat="45.76527" lon="5.35938">
        <ele>369.886</ele>
        <time>2018-06-17T09:12:47Z</time>
      </trkpt>
      <trkpt lat="45.76557" lon="5.35917">
        <ele>368.288</ele>
        <time>2018-06-17T09:12:58Z</time>
      </trkpt>
      <trkpt lat="45.76586" lon="5.35894">
        <ele>368.102</ele>
        <time>2018-06-17T09:13:08Z</time>
      </trkpt>
      <trkpt lat="45.76612" lon="5.35869">
        <ele>368.609</ele>
        <time>2018-06-17T09:13:17Z</time>
      </trkpt>
      <trkpt lat="45.76638" lon="5.35838">
        <ele>368.913</ele>
        <time>2018-06-17T09:13:27Z</time>
      </trkpt>
      <trkpt lat="45.76665" lon="5.35805">
        <ele>370.463</ele>
        <time>2018-06-17T09:13:37Z</time>
      </trkpt>
      <trkpt lat="45.76688" lon="5.35784">
        <ele>369.674</ele>
        <time>2018-06-17T09:13:45Z</time>
      </trkpt>
      <trkpt lat="45.76717" lon="5.35754">
        <ele>369.136</ele>
        <time>2018-06-17T09:13:54Z</time>
      </trkpt>
      <trkpt lat="45.76761" lon="5.35709">
        <ele>368.23</ele>
        <time>2018-06-17T09:14:07Z</time>
      </trkpt>
      <trkpt lat="45.768" lon="5.35669">
        <ele>367.965</ele>
        <time>2018-06-17T09:14:18Z</time>
      </trkpt>
      <trkpt lat="45.76824" lon="5.35649">
        <ele>368.8</ele>
        <time>2018-06-17T09:14:26Z</time>
      </trkpt>
      <trkpt lat="45.76858" lon="5.3565">
        <ele>369.338</ele>
        <time>2018-06-17T09:14:35Z</time>
      </trkpt>
      <trkpt lat="45.76883" lon="5.35663">
        <ele>371.384</ele>
        <time>2018-06-17T09:14:43Z</time>
      </trkpt>
      <trkpt lat="45.76906" lon="5.3567">
        <ele>371.55</ele>
        <time>2018-06-17T09:14:52Z</time>
      </trkpt>
      <trkpt lat="45.76932" lon="5.35681">
        <ele>370.355</ele>
        <time>2018-06-17T09:15:00Z</time>
      </trkpt>
      <trkpt lat="45.76958" lon="5.3568">
        <ele>368.074</ele>
        <time>2018-06-17T09:15:06Z</time>
      </trkpt>
      <trkpt lat="45.77014" lon="5.35656">
        <ele>367.485</ele>
        <time>2018-06-17T09:15:19Z</time>
      </trkpt>
      <trkpt lat="45.77046" lon="5.35635">
        <ele>365.04</ele>
        <time>2018-06-17T09:15:27Z</time>
      </trkpt>
      <trkpt lat="45.77053" lon="5.35629">
        <ele>365.69</ele>
        <time>2018-06-17T09:15:29Z</time>
      </trkpt>
      <trkpt lat="45.77052" lon="5.35604">
        <ele>366.059</ele>
        <time>2018-06-17T09:15:34Z</time>
      </trkpt>
      <trkpt lat="45.77048" lon="5.35572">
        <ele>367.38</ele>
        <time>2018-06-17T09:15:41Z</time>
      </trkpt>
      <trkpt lat="45.77051" lon="5.35536">
        <ele>369.481</ele>
        <time>2018-06-17T09:15:50Z</time>
      </trkpt>
      <trkpt lat="45.77058" lon="5.35502">
        <ele>371.581</ele>
        <time>2018-06-17T09:16:01Z</time>
      </trkpt>
      <trkpt lat="45.77067" lon="5.3547">
        <ele>374.545</ele>
        <time>2018-06-17T09:16:13Z</time>
      </trkpt>
      <trkpt lat="45.77077" lon="5.35439">
        <ele>376.34</ele>
        <time>2018-06-17T09:16:25Z</time>
      </trkpt>
      <trkpt lat="45.77083" lon="5.35419">
        <ele>376.704</ele>
        <time>2018-06-17T09:16:35Z</time>
      </trkpt>
      <trkpt lat="45.77086" lon="5.35408">
        <ele>375.701</ele>
        <time>2018-06-17T09:16:44Z</time>
      </trkpt>
      <trkpt lat="45.77095" lon="5.3539">
        <ele>374.006</ele>
        <time>2018-06-17T09:25:43Z</time>
      </trkpt>
      <trkpt lat="45.77102" lon="5.35372">
        <ele>373.875</ele>
        <time>2018-06-17T09:25:51Z</time>
      </trkpt>
      <trkpt lat="45.77109" lon="5.35355">
        <ele>372.12</ele>
        <time>2018-06-17T09:25:58Z</time>
      </trkpt>
      <trkpt lat="45.77121" lon="5.35328">
        <ele>369.15</ele>
        <time>2018-06-17T09:26:07Z</time>
      </trkpt>
      <trkpt lat="45.77133" lon="5.35306">
        <ele>367.283</ele>
        <time>2018-06-17T09:26:11Z</time>
      </trkpt>
      <trkpt lat="45.77143" lon="5.35287">
        <ele>365.926</ele>
        <time>2018-06-17T09:26:14Z</time>
      </trkpt>
      <trkpt lat="45.77178" lon="5.35232">
        <ele>363.385</ele>
        <time>2018-06-17T09:26:23Z</time>
      </trkpt>
      <trkpt lat="45.77187" lon="5.3522">
        <ele>361.842</ele>
        <time>2018-06-17T09:26:25Z</time>
      </trkpt>
      <trkpt lat="45.77203" lon="5.35199">
        <ele>359.02</ele>
        <time>2018-06-17T09:26:28Z</time>
      </trkpt>
      <trkpt lat="45.77214" lon="5.35184">
        <ele>357.596</ele>
        <time>2018-06-17T09:26:30Z</time>
      </trkpt>
      <trkpt lat="45.77239" lon="5.35159">
        <ele>356.179</ele>
        <time>2018-06-17T09:26:34Z</time>
      </trkpt>
      <trkpt lat="45.77258" lon="5.35144">
        <ele>354.909</ele>
        <time>2018-06-17T09:26:37Z</time>
      </trkpt>
      <trkpt lat="45.7727" lon="5.35138">
        <ele>354.535</ele>
        <time>2018-06-17T09:26:39Z</time>
      </trkpt>
      <trkpt lat="45.7729" lon="5.35124">
        <ele>351.811</ele>
        <time>2018-06-17T09:26:42Z</time>
      </trkpt>
      <trkpt lat="45.77297" lon="5.35119">
        <ele>351.627</ele>
        <time>2018-06-17T09:26:43Z</time>
      </trkpt>
      <trkpt lat="45.7733" lon="5.3511">
        <ele>349.892</ele>
        <time>2018-06-17T09:26:48Z</time>
      </trkpt>
      <trkpt lat="45.77343" lon="5.35109">
        <ele>347.589</ele>
        <time>2018-06-17T09:26:50Z</time>
      </trkpt>
      <trkpt lat="45.77378" lon="5.3509">
        <ele>345.464</ele>
        <time>2018-06-17T09:26:55Z</time>
      </trkpt>
      <trkpt lat="45.77409" lon="5.35063">
        <ele>344.293</ele>
        <time>2018-06-17T09:27:00Z</time>
      </trkpt>
      <trkpt lat="45.77445" lon="5.35046">
        <ele>344.96</ele>
        <time>2018-06-17T09:27:06Z</time>
      </trkpt>
      <trkpt lat="45.77476" lon="5.35037">
        <ele>344.195</ele>
        <time>2018-06-17T09:27:13Z</time>
      </trkpt>
      <trkpt lat="45.77497" lon="5.35029">
        <ele>343.038</ele>
        <time>2018-06-17T09:27:18Z</time>
      </trkpt>
      <trkpt lat="45.77531" lon="5.35003">
        <ele>341.647</ele>
        <time>2018-06-17T09:27:25Z</time>
      </trkpt>
      <trkpt lat="45.77539" lon="5.34996">
        <ele>341.263</ele>
        <time>2018-06-17T09:27:27Z</time>
      </trkpt>
      <trkpt lat="45.77558" lon="5.34995">
        <ele>340.156</ele>
        <time>2018-06-17T09:27:32Z</time>
      </trkpt>
      <trkpt lat="45.77562" lon="5.35">
        <ele>340.116</ele>
        <time>2018-06-17T09:27:38Z</time>
      </trkpt>
      <trkpt lat="45.77577" lon="5.35017">
        <ele>340.603</ele>
        <time>2018-06-17T09:28:06Z</time>
      </trkpt>
      <trkpt lat="45.77597" lon="5.35038">
        <ele>340.196</ele>
        <time>2018-06-17T09:28:16Z</time>
      </trkpt>
      <trkpt lat="45.77618" lon="5.35064">
        <ele>340.848</ele>
        <time>2018-06-17T09:28:24Z</time>
      </trkpt>
      <trkpt lat="45.77636" lon="5.35097">
        <ele>341.264</ele>
        <time>2018-06-17T09:28:32Z</time>
      </trkpt>
      <trkpt lat="45.7764" lon="5.3512">
        <ele>341.303</ele>
        <time>2018-06-17T09:28:37Z</time>
      </trkpt>
      <trkpt lat="45.77625" lon="5.35149">
        <ele>340.793</ele>
        <time>2018-06-17T09:28:43Z</time>
      </trkpt>
      <trkpt lat="45.77598" lon="5.35189">
        <ele>340.28</ele>
        <time>2018-06-17T09:28:52Z</time>
      </trkpt>
      <trkpt lat="45.77583" lon="5.35211">
        <ele>339.917</ele>
        <time>2018-06-17T09:28:57Z</time>
      </trkpt>
      <trkpt lat="45.77577" lon="5.35228">
        <ele>339.796</ele>
        <time>2018-06-17T09:29:00Z</time>
      </trkpt>
      <trkpt lat="45.77577" lon="5.3526">
        <ele>339.33</ele>
        <time>2018-06-17T09:29:06Z</time>
      </trkpt>
      <trkpt lat="45.77587" lon="5.35274">
        <ele>339.007</ele>
        <time>2018-06-17T09:29:10Z</time>
      </trkpt>
      <trkpt lat="45.77598" lon="5.35284">
        <ele>338.565</ele>
        <time>2018-06-17T09:29:13Z</time>
      </trkpt>
      <trkpt lat="45.77605" lon="5.35316">
        <ele>337.798</ele>
        <time>2018-06-17T09:29:18Z</time>
      </trkpt>
      <trkpt lat="45.77602" lon="5.35323">
        <ele>337.793</ele>
        <time>2018-06-17T09:29:19Z</time>
      </trkpt>
      <trkpt lat="45.77574" lon="5.35377">
        <ele>335.701</ele>
        <time>2018-06-17T09:29:27Z</time>
      </trkpt>
      <trkpt lat="45.77553" lon="5.35392">
        <ele>334.409</ele>
        <time>2018-06-17T09:29:33Z</time>
      </trkpt>
      <trkpt lat="45.77541" lon="5.35409">
        <ele>332.713</ele>
        <time>2018-06-17T09:29:40Z</time>
      </trkpt>
      <trkpt lat="45.77528" lon="5.35425">
        <ele>330.447</ele>
        <time>2018-06-17T09:29:47Z</time>
      </trkpt>
      <trkpt lat="45.77518" lon="5.35438">
        <ele>327.376</ele>
        <time>2018-06-17T09:29:52Z</time>
      </trkpt>
      <trkpt lat="45.77514" lon="5.35447">
        <ele>326.048</ele>
        <time>2018-06-17T09:29:54Z</time>
      </trkpt>
      <trkpt lat="45.77509" lon="5.35457">
        <ele>324.692</ele>
        <time>2018-06-17T09:29:57Z</time>
      </trkpt>
      <trkpt lat="45.77518" lon="5.35473">
        <ele>323.337</ele>
        <time>2018-06-17T09:30:01Z</time>
      </trkpt>
      <trkpt lat="45.77521" lon="5.3548">
        <ele>322.502</ele>
        <time>2018-06-17T09:30:02Z</time>
      </trkpt>
      <trkpt lat="45.7754" lon="5.35521">
        <ele>320.657</ele>
        <time>2018-06-17T09:30:09Z</time>
      </trkpt>
      <trkpt lat="45.77543" lon="5.35526">
        <ele>320.587</ele>
        <time>2018-06-17T09:30:12Z</time>
      </trkpt>
      <trkpt lat="45.77546" lon="5.3553">
        <ele>320.681</ele>
        <time>2018-06-17T09:30:20Z</time>
      </trkpt>
      <trkpt lat="45.77555" lon="5.35529">
        <ele>320.264</ele>
        <time>2018-06-17T09:30:25Z</time>
      </trkpt>
      <trkpt lat="45.77573" lon="5.35528">
        <ele>319.737</ele>
        <time>2018-06-17T09:30:34Z</time>
      </trkpt>
      <trkpt lat="45.77594" lon="5.35527">
        <ele>317.465</ele>
        <time>2018-06-17T09:30:41Z</time>
      </trkpt>
      <trkpt lat="45.77616" lon="5.35526">
        <ele>316.87</ele>
        <time>2018-06-17T09:30:47Z</time>
      </trkpt>
      <trkpt lat="45.7763" lon="5.35562">
        <ele>315.26</ele>
        <time>2018-06-17T09:30:54Z</time>
      </trkpt>
      <trkpt lat="45.77636" lon="5.35597">
        <ele>313.183</ele>
        <time>2018-06-17T09:31:01Z</time>
      </trkpt>
      <trkpt lat="45.77638" lon="5.35613">
        <ele>311.22</ele>
        <time>2018-06-17T09:31:04Z</time>
      </trkpt>
      <trkpt lat="45.77646" lon="5.35633">
        <ele>309.869</ele>
        <time>2018-06-17T09:31:08Z</time>
      </trkpt>
      <trkpt lat="45.7765" lon="5.35636">
        <ele>308.827</ele>
        <time>2018-06-17T09:31:09Z</time>
      </trkpt>
      <trkpt lat="45.77661" lon="5.35645">
        <ele>308.231</ele>
        <time>2018-06-17T09:31:12Z</time>
      </trkpt>
      <trkpt lat="45.77671" lon="5.35654">
        <ele>306.573</ele>
        <time>2018-06-17T09:31:15Z</time>
      </trkpt>
      <trkpt lat="45.77673" lon="5.35671">
        <ele>305.745</ele>
        <time>2018-06-17T09:31:18Z</time>
      </trkpt>
      <trkpt lat="45.77664" lon="5.35723">
        <ele>304.965</ele>
        <time>2018-06-17T09:31:28Z</time>
      </trkpt>
      <trkpt lat="45.77655" lon="5.35767">
        <ele>305.259</ele>
        <time>2018-06-17T09:31:36Z</time>
      </trkpt>
      <trkpt lat="45.77652" lon="5.35805">
        <ele>305.5</ele>
        <time>2018-06-17T09:31:44Z</time>
      </trkpt>
      <trkpt lat="45.77659" lon="5.35832">
        <ele>306.218</ele>
        <time>2018-06-17T09:31:51Z</time>
      </trkpt>
      <trkpt lat="45.77666" lon="5.35855">
        <ele>306.463</ele>
        <time>2018-06-17T09:31:56Z</time>
      </trkpt>
      <trkpt lat="45.7768" lon="5.35891">
        <ele>307.43</ele>
        <time>2018-06-17T09:32:04Z</time>
      </trkpt>
      <trkpt lat="45.77687" lon="5.35905">
        <ele>308.33</ele>
        <time>2018-06-17T09:32:09Z</time>
      </trkpt>
      <trkpt lat="45.77694" lon="5.3592">
        <ele>309.575</ele>
        <time>2018-06-17T09:32:15Z</time>
      </trkpt>
      <trkpt lat="45.77703" lon="5.35938">
        <ele>311.035</ele>
        <time>2018-06-17T09:32:23Z</time>
      </trkpt>
      <trkpt lat="45.77713" lon="5.35953">
        <ele>312.317</ele>
        <time>2018-06-17T09:32:30Z</time>
      </trkpt>
      <trkpt lat="45.77726" lon="5.35967">
        <ele>312.595</ele>
        <time>2018-06-17T09:32:38Z</time>
      </trkpt>
      <trkpt lat="45.77742" lon="5.3599">
        <ele>309.923</ele>
        <time>2018-06-17T09:32:44Z</time>
      </trkpt>
      <trkpt lat="45.77745" lon="5.35994">
        <ele>309.918</ele>
        <time>2018-06-17T09:32:45Z</time>
      </trkpt>
      <trkpt lat="45.77748" lon="5.35998">
        <ele>309.719</ele>
        <time>2018-06-17T09:32:46Z</time>
      </trkpt>
      <trkpt lat="45.77767" lon="5.36014">
        <ele>307.209</ele>
        <time>2018-06-17T09:32:50Z</time>
      </trkpt>
      <trkpt lat="45.77778" lon="5.36022">
        <ele>306.924</ele>
        <time>2018-06-17T09:32:52Z</time>
      </trkpt>
      <trkpt lat="45.77804" lon="5.36031">
        <ele>305.656</ele>
        <time>2018-06-17T09:32:58Z</time>
      </trkpt>
      <trkpt lat="45.77818" lon="5.3604">
        <ele>305.813</ele>
        <time>2018-06-17T09:33:02Z</time>
      </trkpt>
      <trkpt lat="45.7785" lon="5.36087">
        <ele>304.64</ele>
        <time>2018-06-17T09:33:11Z</time>
      </trkpt>
      <trkpt lat="45.77868" lon="5.36098">
        <ele>304.341</ele>
        <time>2018-06-17T09:33:15Z</time>
      </trkpt>
      <trkpt lat="45.7788" lon="5.36102">
        <ele>302.533</ele>
        <time>2018-06-17T09:33:17Z</time>
      </trkpt>
      <trkpt lat="45.77898" lon="5.36107">
        <ele>301.571</ele>
        <time>2018-06-17T09:33:20Z</time>
      </trkpt>
      <trkpt lat="45.77921" lon="5.3611">
        <ele>300.449</ele>
        <time>2018-06-17T09:33:24Z</time>
      </trkpt>
      <trkpt lat="45.77937" lon="5.36137">
        <ele>299.912</ele>
        <time>2018-06-17T09:33:30Z</time>
      </trkpt>
      <trkpt lat="45.77959" lon="5.3618">
        <ele>301.052</ele>
        <time>2018-06-17T09:33:41Z</time>
      </trkpt>
      <trkpt lat="45.77964" lon="5.36202">
        <ele>301.512</ele>
        <time>2018-06-17T09:33:49Z</time>
      </trkpt>
      <trkpt lat="45.77964" lon="5.3621">
        <ele>301.429</ele>
        <time>2018-06-17T09:33:58Z</time>
      </trkpt>
      <trkpt lat="45.77983" lon="5.36234">
        <ele>300.562</ele>
        <time>2018-06-17T09:34:44Z</time>
      </trkpt>
      <trkpt lat="45.77991" lon="5.36251">
        <ele>299.304</ele>
        <time>2018-06-17T09:34:49Z</time>
      </trkpt>
      <trkpt lat="45.78004" lon="5.36266">
        <ele>297.441</ele>
        <time>2018-06-17T09:34:54Z</time>
      </trkpt>
      <trkpt lat="45.78023" lon="5.36282">
        <ele>295.695</ele>
        <time>2018-06-17T09:35:01Z</time>
      </trkpt>
      <trkpt lat="45.78034" lon="5.36296">
        <ele>294.402</ele>
        <time>2018-06-17T09:35:06Z</time>
      </trkpt>
      <trkpt lat="45.78039" lon="5.3631">
        <ele>292.882</ele>
        <time>2018-06-17T09:35:09Z</time>
      </trkpt>
      <trkpt lat="45.78046" lon="5.3634">
        <ele>291.89</ele>
        <time>2018-06-17T09:35:16Z</time>
      </trkpt>
      <trkpt lat="45.78046" lon="5.36362">
        <ele>290.311</ele>
        <time>2018-06-17T09:35:25Z</time>
      </trkpt>
      <trkpt lat="45.78045" lon="5.36366">
        <ele>288.864</ele>
        <time>2018-06-17T09:35:27Z</time>
      </trkpt>
      <trkpt lat="45.78042" lon="5.36377">
        <ele>287.441</ele>
        <time>2018-06-17T09:35:32Z</time>
      </trkpt>
      <trkpt lat="45.78034" lon="5.36389">
        <ele>284.733</ele>
        <time>2018-06-17T09:35:38Z</time>
      </trkpt>
      <trkpt lat="45.78025" lon="5.36396">
        <ele>281.745</ele>
        <time>2018-06-17T09:35:45Z</time>
      </trkpt>
      <trkpt lat="45.78021" lon="5.36398">
        <ele>280.768</ele>
        <time>2018-06-17T09:35:50Z</time>
      </trkpt>
      <trkpt lat="45.78021" lon="5.36424">
        <ele>279.397</ele>
        <time>2018-06-17T09:35:54Z</time>
      </trkpt>
      <trkpt lat="45.78016" lon="5.36428">
        <ele>278.706</ele>
        <time>2018-06-17T09:35:56Z</time>
      </trkpt>
      <trkpt lat="45.78025" lon="5.36419">
        <ele>275.196</ele>
        <time>2018-06-17T09:36:07Z</time>
      </trkpt>
      <trkpt lat="45.78026" lon="5.36417">
        <ele>274.16</ele>
        <time>2018-06-17T09:36:11Z</time>
      </trkpt>
      <trkpt lat="45.78038" lon="5.3641">
        <ele>272.155</ele>
        <time>2018-06-17T09:36:16Z</time>
      </trkpt>
      <trkpt lat="45.78058" lon="5.36404">
        <ele>270.334</ele>
        <time>2018-06-17T09:36:23Z</time>
      </trkpt>
      <trkpt lat="45.78072" lon="5.364">
        <ele>270.695</ele>
        <time>2018-06-17T09:36:29Z</time>
      </trkpt>
      <trkpt lat="45.78085" lon="5.36396">
        <ele>269.4</ele>
        <time>2018-06-17T09:36:33Z</time>
      </trkpt>
      <trkpt lat="45.78096" lon="5.36389">
        <ele>270.104</ele>
        <time>2018-06-17T09:36:55Z</time>
      </trkpt>
      <trkpt lat="45.781" lon="5.36386">
        <ele>269.712</ele>
        <time>2018-06-17T09:43:49Z</time>
      </trkpt>
      <trkpt lat="45.78117" lon="5.36364">
        <ele>268.437</ele>
        <time>2018-06-17T09:43:57Z</time>
      </trkpt>
      <trkpt lat="45.7812" lon="5.36361">
        <ele>268.284</ele>
        <time>2018-06-17T09:43:58Z</time>
      </trkpt>
      <trkpt lat="45.78138" lon="5.3635">
        <ele>267.532</ele>
        <time>2018-06-17T09:44:03Z</time>
      </trkpt>
      <trkpt lat="45.78162" lon="5.36334">
        <ele>266.538</ele>
        <time>2018-06-17T09:44:09Z</time>
      </trkpt>
      <trkpt lat="45.78176" lon="5.36322">
        <ele>266.866</ele>
        <time>2018-06-17T09:44:13Z</time>
      </trkpt>
      <trkpt lat="45.78205" lon="5.36301">
        <ele>266.087</ele>
        <time>2018-06-17T09:44:22Z</time>
      </trkpt>
      <trkpt lat="45.78236" lon="5.36289">
        <ele>265.411</ele>
        <time>2018-06-17T09:44:31Z</time>
      </trkpt>
      <trkpt lat="45.78249" lon="5.36284">
        <ele>264.793</ele>
        <time>2018-06-17T09:44:35Z</time>
      </trkpt>
      <trkpt lat="45.78261" lon="5.36274">
        <ele>264.526</ele>
        <time>2018-06-17T09:44:38Z</time>
      </trkpt>
      <trkpt lat="45.7829" lon="5.36252">
        <ele>263.402</ele>
        <time>2018-06-17T09:44:46Z</time>
      </trkpt>
      <trkpt lat="45.78325" lon="5.3623">
        <ele>263.241</ele>
        <time>2018-06-17T09:44:55Z</time>
      </trkpt>
      <trkpt lat="45.78354" lon="5.36214">
        <ele>262.321</ele>
        <time>2018-06-17T09:45:02Z</time>
      </trkpt>
      <trkpt lat="45.78375" lon="5.36198">
        <ele>261.72</ele>
        <time>2018-06-17T09:45:09Z</time>
      </trkpt>
      <trkpt lat="45.784" lon="5.36178">
        <ele>261.726</ele>
        <time>2018-06-17T09:45:17Z</time>
      </trkpt>
      <trkpt lat="45.78417" lon="5.36162">
        <ele>261.46</ele>
        <time>2018-06-17T09:45:23Z</time>
      </trkpt>
      <trkpt lat="45.78432" lon="5.36149">
        <ele>260.993</ele>
        <time>2018-06-17T09:45:29Z</time>
      </trkpt>
      <trkpt lat="45.78445" lon="5.36137">
        <ele>260.472</ele>
        <time>2018-06-17T09:45:33Z</time>
      </trkpt>
      <trkpt lat="45.78467" lon="5.36117">
        <ele>260.578</ele>
        <time>2018-06-17T09:45:40Z</time>
      </trkpt>
      <trkpt lat="45.78483" lon="5.36103">
        <ele>260.4</ele>
        <time>2018-06-17T09:45:46Z</time>
      </trkpt>
      <trkpt lat="45.78498" lon="5.36086">
        <ele>261.78</ele>
        <time>2018-06-17T09:45:52Z</time>
      </trkpt>
      <trkpt lat="45.78513" lon="5.36066">
        <ele>261.596</ele>
        <time>2018-06-17T09:45:59Z</time>
      </trkpt>
      <trkpt lat="45.78527" lon="5.36048">
        <ele>260.687</ele>
        <time>2018-06-17T09:46:03Z</time>
      </trkpt>
      <trkpt lat="45.78554" lon="5.36016">
        <ele>260.171</ele>
        <time>2018-06-17T09:46:10Z</time>
      </trkpt>
      <trkpt lat="45.78572" lon="5.3599">
        <ele>259.621</ele>
        <time>2018-06-17T09:46:16Z</time>
      </trkpt>
      <trkpt lat="45.78576" lon="5.35984">
        <ele>259.293</ele>
        <time>2018-06-17T09:46:19Z</time>
      </trkpt>
      <trkpt lat="45.78587" lon="5.35993">
        <ele>258.454</ele>
        <time>2018-06-17T09:46:25Z</time>
      </trkpt>
      <trkpt lat="45.78587" lon="5.36015">
        <ele>258.48</ele>
        <time>2018-06-17T09:46:36Z</time>
      </trkpt>
      <trkpt lat="45.78589" lon="5.36035">
        <ele>258.664</ele>
        <time>2018-06-17T09:46:43Z</time>
      </trkpt>
      <trkpt lat="45.78593" lon="5.36054">
        <ele>259.271</ele>
        <time>2018-06-17T09:46:49Z</time>
      </trkpt>
      <trkpt lat="45.78598" lon="5.36077">
        <ele>258.813</ele>
        <time>2018-06-17T09:46:55Z</time>
      </trkpt>
      <trkpt lat="45.78608" lon="5.36102">
        <ele>259.329</ele>
        <time>2018-06-17T09:47:02Z</time>
      </trkpt>
      <trkpt lat="45.78624" lon="5.36114">
        <ele>260.088</ele>
        <time>2018-06-17T09:47:09Z</time>
      </trkpt>
      <trkpt lat="45.78643" lon="5.36119">
        <ele>261.249</ele>
        <time>2018-06-17T09:47:18Z</time>
      </trkpt>
      <trkpt lat="45.78658" lon="5.36122">
        <ele>262.649</ele>
        <time>2018-06-17T09:47:28Z</time>
      </trkpt>
      <trkpt lat="45.78674" lon="5.36132">
        <ele>264.864</ele>
        <time>2018-06-17T09:47:42Z</time>
      </trkpt>
      <trkpt lat="45.78689" lon="5.3614">
        <ele>265.343</ele>
        <time>2018-06-17T09:47:51Z</time>
      </trkpt>
      <trkpt lat="45.78712" lon="5.36155">
        <ele>265.804</ele>
        <time>2018-06-17T09:48:02Z</time>
      </trkpt>
      <trkpt lat="45.78727" lon="5.36166">
        <ele>266.168</ele>
        <time>2018-06-17T09:48:10Z</time>
      </trkpt>
      <trkpt lat="45.78744" lon="5.36169">
        <ele>265.813</ele>
        <time>2018-06-17T09:48:18Z</time>
      </trkpt>
      <trkpt lat="45.78746" lon="5.36169">
        <ele>265.803</ele>
        <time>2018-06-17T09:48:19Z</time>
      </trkpt>
      <trkpt lat="45.78752" lon="5.36171">
        <ele>265.536</ele>
        <time>2018-06-17T09:48:21Z</time>
      </trkpt>
      <trkpt lat="45.78758" lon="5.36188">
        <ele>265.52</ele>
        <time>2018-06-17T09:48:25Z</time>
      </trkpt>
      <trkpt lat="45.78761" lon="5.3622">
        <ele>265.589</ele>
        <time>2018-06-17T09:48:34Z</time>
      </trkpt>
      <trkpt lat="45.78766" lon="5.36258">
        <ele>266.453</ele>
        <time>2018-06-17T09:48:43Z</time>
      </trkpt>
      <trkpt lat="45.78773" lon="5.36295">
        <ele>266.657</ele>
        <time>2018-06-17T09:48:52Z</time>
      </trkpt>
      <trkpt lat="45.78776" lon="5.36327">
        <ele>267.353</ele>
        <time>2018-06-17T09:49:00Z</time>
      </trkpt>
      <trkpt lat="45.78779" lon="5.36368">
        <ele>267.548</ele>
        <time>2018-06-17T09:49:10Z</time>
      </trkpt>
      <trkpt lat="45.78791" lon="5.36404">
        <ele>266.98</ele>
        <time>2018-06-17T09:49:18Z</time>
      </trkpt>
      <trkpt lat="45.78801" lon="5.36429">
        <ele>267.187</ele>
        <time>2018-06-17T09:49:25Z</time>
      </trkpt>
      <trkpt lat="45.78812" lon="5.36455">
        <ele>267.28</ele>
        <time>2018-06-17T09:49:32Z</time>
      </trkpt>
      <trkpt lat="45.78819" lon="5.36471">
        <ele>267.416</ele>
        <time>2018-06-17T09:49:37Z</time>
      </trkpt>
      <trkpt lat="45.78821" lon="5.36473">
        <ele>267.626</ele>
        <time>2018-06-17T09:49:41Z</time>
      </trkpt>
      <trkpt lat="45.7883" lon="5.36464">
        <ele>267.345</ele>
        <time>2018-06-17T09:49:46Z</time>
      </trkpt>
      <trkpt lat="45.78845" lon="5.36495">
        <ele>267.213</ele>
        <time>2018-06-17T09:49:52Z</time>
      </trkpt>
      <trkpt lat="45.78856" lon="5.36524">
        <ele>266.898</ele>
        <time>2018-06-17T09:49:58Z</time>
      </trkpt>
      <trkpt lat="45.78874" lon="5.36542">
        <ele>266.688</ele>
        <time>2018-06-17T09:50:04Z</time>
      </trkpt>
      <trkpt lat="45.78886" lon="5.36546">
        <ele>266.498</ele>
        <time>2018-06-17T09:50:09Z</time>
      </trkpt>
      <trkpt lat="45.78908" lon="5.36556">
        <ele>267.055</ele>
        <time>2018-06-17T09:50:19Z</time>
      </trkpt>
      <trkpt lat="45.78916" lon="5.3657">
        <ele>267.506</ele>
        <time>2018-06-17T09:50:26Z</time>
      </trkpt>
      <trkpt lat="45.78922" lon="5.3658">
        <ele>267.993</ele>
        <time>2018-06-17T09:50:33Z</time>
      </trkpt>
      <trkpt lat="45.78929" lon="5.36596">
        <ele>268.744</ele>
        <time>2018-06-17T09:50:42Z</time>
      </trkpt>
      <trkpt lat="45.78935" lon="5.36622">
        <ele>270.064</ele>
        <time>2018-06-17T09:50:52Z</time>
      </trkpt>
      <trkpt lat="45.78939" lon="5.3664">
        <ele>272.128</ele>
        <time>2018-06-17T09:51:02Z</time>
      </trkpt>
      <trkpt lat="45.7894" lon="5.36645">
        <ele>273.104</ele>
        <time>2018-06-17T09:51:10Z</time>
      </trkpt>
      <trkpt lat="45.78932" lon="5.36684">
        <ele>275.863</ele>
        <time>2018-06-17T09:51:34Z</time>
      </trkpt>
      <trkpt lat="45.78928" lon="5.36691">
        <ele>276.721</ele>
        <time>2018-06-17T09:51:39Z</time>
      </trkpt>
      <trkpt lat="45.78875" lon="5.36792">
        <ele>289.097</ele>
        <time>2018-06-17T09:53:07Z</time>
      </trkpt>
      <trkpt lat="45.78866" lon="5.36817">
        <ele>290.434</ele>
        <time>2018-06-17T09:53:19Z</time>
      </trkpt>
      <trkpt lat="45.78859" lon="5.36838">
        <ele>292.871</ele>
        <time>2018-06-17T09:53:31Z</time>
      </trkpt>
      <trkpt lat="45.78857" lon="5.36842">
        <ele>295.195</ele>
        <time>2018-06-17T09:53:41Z</time>
      </trkpt>
      <trkpt lat="45.78846" lon="5.36882">
        <ele>299.185</ele>
        <time>2018-06-17T09:54:02Z</time>
      </trkpt>
      <trkpt lat="45.78846" lon="5.36886">
        <ele>300.217</ele>
        <time>2018-06-17T09:54:06Z</time>
      </trkpt>
      <trkpt lat="45.78859" lon="5.36938">
        <ele>304.451</ele>
        <time>2018-06-17T09:54:33Z</time>
      </trkpt>
      <trkpt lat="45.78861" lon="5.3695">
        <ele>304.972</ele>
        <time>2018-06-17T09:54:41Z</time>
      </trkpt>
      <trkpt lat="45.78864" lon="5.36965">
        <ele>306.241</ele>
        <time>2018-06-17T09:54:52Z</time>
      </trkpt>
      <trkpt lat="45.78865" lon="5.3697">
        <ele>306.353</ele>
        <time>2018-06-17T09:54:53Z</time>
      </trkpt>
      <trkpt lat="45.78878" lon="5.36985">
        <ele>306.291</ele>
        <time>2018-06-17T09:56:50Z</time>
      </trkpt>
      <trkpt lat="45.78882" lon="5.36988">
        <ele>306.109</ele>
        <time>2018-06-17T09:56:52Z</time>
      </trkpt>
      <trkpt lat="45.78896" lon="5.37002">
        <ele>306.756</ele>
        <time>2018-06-17T09:57:00Z</time>
      </trkpt>
      <trkpt lat="45.78908" lon="5.37025">
        <ele>306.945</ele>
        <time>2018-06-17T09:57:09Z</time>
      </trkpt>
      <trkpt lat="45.78925" lon="5.37053">
        <ele>307.607</ele>
        <time>2018-06-17T09:57:22Z</time>
      </trkpt>
      <trkpt lat="45.78948" lon="5.37078">
        <ele>308.331</ele>
        <time>2018-06-17T09:57:35Z</time>
      </trkpt>
      <trkpt lat="45.78968" lon="5.37086">
        <ele>308.825</ele>
        <time>2018-06-17T09:57:44Z</time>
      </trkpt>
      <trkpt lat="45.78991" lon="5.37089">
        <ele>308.3</ele>
        <time>2018-06-17T09:57:54Z</time>
      </trkpt>
      <trkpt lat="45.79007" lon="5.37091">
        <ele>309.749</ele>
        <time>2018-06-17T09:58:02Z</time>
      </trkpt>
      <trkpt lat="45.79032" lon="5.37094">
        <ele>310.558</ele>
        <time>2018-06-17T09:58:14Z</time>
      </trkpt>
      <trkpt lat="45.79057" lon="5.37096">
        <ele>310.84</ele>
        <time>2018-06-17T09:58:26Z</time>
      </trkpt>
      <trkpt lat="45.7908" lon="5.37094">
        <ele>312.304</ele>
        <time>2018-06-17T09:58:36Z</time>
      </trkpt>
      <trkpt lat="45.79101" lon="5.37092">
        <ele>312.83</ele>
        <time>2018-06-17T09:58:44Z</time>
      </trkpt>
      <trkpt lat="45.79122" lon="5.37102">
        <ele>313.785</ele>
        <time>2018-06-17T09:58:52Z</time>
      </trkpt>
      <trkpt lat="45.7914" lon="5.37111">
        <ele>312.386</ele>
        <time>2018-06-17T09:58:58Z</time>
      </trkpt>
      <trkpt lat="45.7916" lon="5.37102">
        <ele>311.755</ele>
        <time>2018-06-17T09:59:04Z</time>
      </trkpt>
      <trkpt lat="45.79196" lon="5.37082">
        <ele>312.662</ele>
        <time>2018-06-17T09:59:14Z</time>
      </trkpt>
      <trkpt lat="45.7922" lon="5.37072">
        <ele>313.979</ele>
        <time>2018-06-17T09:59:22Z</time>
      </trkpt>
      <trkpt lat="45.79245" lon="5.37068">
        <ele>314.073</ele>
        <time>2018-06-17T09:59:30Z</time>
      </trkpt>
      <trkpt lat="45.79267" lon="5.37076">
        <ele>315.209</ele>
        <time>2018-06-17T09:59:39Z</time>
      </trkpt>
      <trkpt lat="45.79298" lon="5.37088">
        <ele>313.27</ele>
        <time>2018-06-17T09:59:52Z</time>
      </trkpt>
      <trkpt lat="45.79314" lon="5.37092">
        <ele>311.565</ele>
        <time>2018-06-17T09:59:58Z</time>
      </trkpt>
      <trkpt lat="45.7932" lon="5.37092">
        <ele>310.365</ele>
        <time>2018-06-17T10:00:00Z</time>
      </trkpt>
      <trkpt lat="45.79346" lon="5.3709">
        <ele>308.093</ele>
        <time>2018-06-17T10:00:10Z</time>
      </trkpt>
      <trkpt lat="45.79378" lon="5.37077">
        <ele>305.629</ele>
        <time>2018-06-17T10:00:19Z</time>
      </trkpt>
      <trkpt lat="45.79387" lon="5.37075">
        <ele>304.671</ele>
        <time>2018-06-17T10:00:21Z</time>
      </trkpt>
      <trkpt lat="45.79408" lon="5.37074">
        <ele>302.794</ele>
        <time>2018-06-17T10:00:27Z</time>
      </trkpt>
      <trkpt lat="45.7942" lon="5.37078">
        <ele>301.521</ele>
        <time>2018-06-17T10:00:30Z</time>
      </trkpt>
      <trkpt lat="45.79429" lon="5.3708">
        <ele>300.111</ele>
        <time>2018-06-17T10:00:32Z</time>
      </trkpt>
      <trkpt lat="45.79452" lon="5.3709">
        <ele>297.921</ele>
        <time>2018-06-17T10:00:37Z</time>
      </trkpt>
      <trkpt lat="45.79504" lon="5.3711">
        <ele>295.558</ele>
        <time>2018-06-17T10:00:47Z</time>
      </trkpt>
      <trkpt lat="45.79548" lon="5.37122">
        <ele>295.296</ele>
        <time>2018-06-17T10:00:56Z</time>
      </trkpt>
      <trkpt lat="45.79557" lon="5.37122">
        <ele>294.403</ele>
        <time>2018-06-17T10:00:58Z</time>
      </trkpt>
      <trkpt lat="45.79595" lon="5.37111">
        <ele>291.294</ele>
        <time>2018-06-17T10:01:05Z</time>
      </trkpt>
      <trkpt lat="45.79628" lon="5.371">
        <ele>288.07</ele>
        <time>2018-06-17T10:01:11Z</time>
      </trkpt>
      <trkpt lat="45.79661" lon="5.37088">
        <ele>285.056</ele>
        <time>2018-06-17T10:01:17Z</time>
      </trkpt>
      <trkpt lat="45.79666" lon="5.37086">
        <ele>285.088</ele>
        <time>2018-06-17T10:01:18Z</time>
      </trkpt>
      <trkpt lat="45.79679" lon="5.37083">
        <ele>284.469</ele>
        <time>2018-06-17T10:01:20Z</time>
      </trkpt>
      <trkpt lat="45.79732" lon="5.37083">
        <ele>283.069</ele>
        <time>2018-06-17T10:01:28Z</time>
      </trkpt>
      <trkpt lat="45.79745" lon="5.37081">
        <ele>282.275</ele>
        <time>2018-06-17T10:01:30Z</time>
      </trkpt>
      <trkpt lat="45.79772" lon="5.37062">
        <ele>281.547</ele>
        <time>2018-06-17T10:01:36Z</time>
      </trkpt>
      <trkpt lat="45.79799" lon="5.37043">
        <ele>279.064</ele>
        <time>2018-06-17T10:01:43Z</time>
      </trkpt>
      <trkpt lat="45.79846" lon="5.3702">
        <ele>276.287</ele>
        <time>2018-06-17T10:01:53Z</time>
      </trkpt>
      <trkpt lat="45.79882" lon="5.36997">
        <ele>275.086</ele>
        <time>2018-06-17T10:02:01Z</time>
      </trkpt>
      <trkpt lat="45.79935" lon="5.36967">
        <ele>272.174</ele>
        <time>2018-06-17T10:02:12Z</time>
      </trkpt>
      <trkpt lat="45.7997" lon="5.36941">
        <ele>269.377</ele>
        <time>2018-06-17T10:02:20Z</time>
      </trkpt>
      <trkpt lat="45.79996" lon="5.36912">
        <ele>269.466</ele>
        <time>2018-06-17T10:02:28Z</time>
      </trkpt>
      <trkpt lat="45.80015" lon="5.36885">
        <ele>269.302</ele>
        <time>2018-06-17T10:02:36Z</time>
      </trkpt>
      <trkpt lat="45.80031" lon="5.36859">
        <ele>268.869</ele>
        <time>2018-06-17T10:02:44Z</time>
      </trkpt>
      <trkpt lat="45.80037" lon="5.36845">
        <ele>268.366</ele>
        <time>2018-06-17T10:02:50Z</time>
      </trkpt>
      <trkpt lat="45.80063" lon="5.36851">
        <ele>266.626</ele>
        <time>2018-06-17T10:02:56Z</time>
      </trkpt>
      <trkpt lat="45.80065" lon="5.36854">
        <ele>266.867</ele>
        <time>2018-06-17T10:02:57Z</time>
      </trkpt>
      <trkpt lat="45.80081" lon="5.36884">
        <ele>265.83</ele>
        <time>2018-06-17T10:03:05Z</time>
      </trkpt>
      <trkpt lat="45.80099" lon="5.36912">
        <ele>265.964</ele>
        <time>2018-06-17T10:03:15Z</time>
      </trkpt>
      <trkpt lat="45.80107" lon="5.36923">
        <ele>266.265</ele>
        <time>2018-06-17T10:03:23Z</time>
      </trkpt>
      <trkpt lat="45.8011" lon="5.3693">
        <ele>266.296</ele>
        <time>2018-06-17T10:03:30Z</time>
      </trkpt>
      <trkpt lat="45.80114" lon="5.36942">
        <ele>264.992</ele>
        <time>2018-06-17T10:05:44Z</time>
      </trkpt>
      <trkpt lat="45.80117" lon="5.36959">
        <ele>265.2</ele>
        <time>2018-06-17T10:05:51Z</time>
      </trkpt>
      <trkpt lat="45.80119" lon="5.36976">
        <ele>264.73</ele>
        <time>2018-06-17T10:05:56Z</time>
      </trkpt>
      <trkpt lat="45.8012" lon="5.36984">
        <ele>264.112</ele>
        <time>2018-06-17T10:05:58Z</time>
      </trkpt>
      <trkpt lat="45.80126" lon="5.37007">
        <ele>263.627</ele>
        <time>2018-06-17T10:06:03Z</time>
      </trkpt>
      <trkpt lat="45.8013" lon="5.37022">
        <ele>262.94</ele>
        <time>2018-06-17T10:06:08Z</time>
      </trkpt>
      <trkpt lat="45.80139" lon="5.37035">
        <ele>263.014</ele>
        <time>2018-06-17T10:06:11Z</time>
      </trkpt>
      <trkpt lat="45.80165" lon="5.37041">
        <ele>263.045</ele>
        <time>2018-06-17T10:06:20Z</time>
      </trkpt>
      <trkpt lat="45.80195" lon="5.37054">
        <ele>264.366</ele>
        <time>2018-06-17T10:06:30Z</time>
      </trkpt>
      <trkpt lat="45.8023" lon="5.37065">
        <ele>265.822</ele>
        <time>2018-06-17T10:06:42Z</time>
      </trkpt>
      <trkpt lat="45.80249" lon="5.37079">
        <ele>267.767</ele>
        <time>2018-06-17T10:06:52Z</time>
      </trkpt>
      <trkpt lat="45.80256" lon="5.37088">
        <ele>269.513</ele>
        <time>2018-06-17T10:06:57Z</time>
      </trkpt>
      <trkpt lat="45.80278" lon="5.37115">
        <ele>270.92</ele>
        <time>2018-06-17T10:07:11Z</time>
      </trkpt>
      <trkpt lat="45.8029" lon="5.37121">
        <ele>270.771</ele>
        <time>2018-06-17T10:07:17Z</time>
      </trkpt>
      <trkpt lat="45.80293" lon="5.37122">
        <ele>269.977</ele>
        <time>2018-06-17T10:07:18Z</time>
      </trkpt>
      <trkpt lat="45.80309" lon="5.37131">
        <ele>269.826</ele>
        <time>2018-06-17T10:07:22Z</time>
      </trkpt>
      <trkpt lat="45.80326" lon="5.37147">
        <ele>269.474</ele>
        <time>2018-06-17T10:07:27Z</time>
      </trkpt>
      <trkpt lat="45.80326" lon="5.37163">
        <ele>269.945</ele>
        <time>2018-06-17T10:07:33Z</time>
      </trkpt>
      <trkpt lat="45.80315" lon="5.37186">
        <ele>270.792</ele>
        <time>2018-06-17T10:07:47Z</time>
      </trkpt>
      <trkpt lat="45.80304" lon="5.37215">
        <ele>271.555</ele>
        <time>2018-06-17T10:07:58Z</time>
      </trkpt>
      <trkpt lat="45.80292" lon="5.37244">
        <ele>271.693</ele>
        <time>2018-06-17T10:08:07Z</time>
      </trkpt>
      <trkpt lat="45.80279" lon="5.37279">
        <ele>271.36</ele>
        <time>2018-06-17T10:08:15Z</time>
      </trkpt>
      <trkpt lat="45.8026" lon="5.3733">
        <ele>271.818</ele>
        <time>2018-06-17T10:08:26Z</time>
      </trkpt>
      <trkpt lat="45.80241" lon="5.37365">
        <ele>272.194</ele>
        <time>2018-06-17T10:08:35Z</time>
      </trkpt>
      <trkpt lat="45.8023" lon="5.37382">
        <ele>272.102</ele>
        <time>2018-06-17T10:08:40Z</time>
      </trkpt>
      <trkpt lat="45.80218" lon="5.37406">
        <ele>271.968</ele>
        <time>2018-06-17T10:08:46Z</time>
      </trkpt>
      <trkpt lat="45.80216" lon="5.37428">
        <ele>273.078</ele>
        <time>2018-06-17T10:08:53Z</time>
      </trkpt>
      <trkpt lat="45.80209" lon="5.37466">
        <ele>275.018</ele>
        <time>2018-06-17T10:09:06Z</time>
      </trkpt>
      <trkpt lat="45.80204" lon="5.37501">
        <ele>276.128</ele>
        <time>2018-06-17T10:09:17Z</time>
      </trkpt>
      <trkpt lat="45.80198" lon="5.3753">
        <ele>276.999</ele>
        <time>2018-06-17T10:09:27Z</time>
      </trkpt>
      <trkpt lat="45.80193" lon="5.37546">
        <ele>277.913</ele>
        <time>2018-06-17T10:09:34Z</time>
      </trkpt>
      <trkpt lat="45.80183" lon="5.3757">
        <ele>280.078</ele>
        <time>2018-06-17T10:09:45Z</time>
      </trkpt>
      <trkpt lat="45.8017" lon="5.37599">
        <ele>281.998</ele>
        <time>2018-06-17T10:09:59Z</time>
      </trkpt>
      <trkpt lat="45.80159" lon="5.37621">
        <ele>282.482</ele>
        <time>2018-06-17T10:10:11Z</time>
      </trkpt>
      <trkpt lat="45.80157" lon="5.37624">
        <ele>283.023</ele>
        <time>2018-06-17T10:10:17Z</time>
      </trkpt>
      <trkpt lat="45.80149" lon="5.37636">
        <ele>282.819</ele>
        <time>2018-06-17T10:11:40Z</time>
      </trkpt>
      <trkpt lat="45.80136" lon="5.37656">
        <ele>281.93</ele>
        <time>2018-06-17T10:11:46Z</time>
      </trkpt>
      <trkpt lat="45.80125" lon="5.37676">
        <ele>280.883</ele>
        <time>2018-06-17T10:11:51Z</time>
      </trkpt>
      <trkpt lat="45.80118" lon="5.37691">
        <ele>280.902</ele>
        <time>2018-06-17T10:11:56Z</time>
      </trkpt>
      <trkpt lat="45.8011" lon="5.37709">
        <ele>281.336</ele>
        <time>2018-06-17T10:12:02Z</time>
      </trkpt>
      <trkpt lat="45.80103" lon="5.37731">
        <ele>282.16</ele>
        <time>2018-06-17T10:12:08Z</time>
      </trkpt>
      <trkpt lat="45.80091" lon="5.37774">
        <ele>281.751</ele>
        <time>2018-06-17T10:12:16Z</time>
      </trkpt>
      <trkpt lat="45.80091" lon="5.37787">
        <ele>281.524</ele>
        <time>2018-06-17T10:12:18Z</time>
      </trkpt>
      <trkpt lat="45.80096" lon="5.37816">
        <ele>282.16</ele>
        <time>2018-06-17T10:12:25Z</time>
      </trkpt>
      <trkpt lat="45.80096" lon="5.37822">
        <ele>282.157</ele>
        <time>2018-06-17T10:12:27Z</time>
      </trkpt>
      <trkpt lat="45.80097" lon="5.37843">
        <ele>283.442</ele>
        <time>2018-06-17T10:12:33Z</time>
      </trkpt>
      <trkpt lat="45.80094" lon="5.37873">
        <ele>284.424</ele>
        <time>2018-06-17T10:12:45Z</time>
      </trkpt>
      <trkpt lat="45.80092" lon="5.37881">
        <ele>284.657</ele>
        <time>2018-06-17T10:12:51Z</time>
      </trkpt>
      <trkpt lat="45.80086" lon="5.37896">
        <ele>284.424</ele>
        <time>2018-06-17T10:12:55Z</time>
      </trkpt>
      <trkpt lat="45.8007" lon="5.37912">
        <ele>284.939</ele>
        <time>2018-06-17T10:13:01Z</time>
      </trkpt>
      <trkpt lat="45.80061" lon="5.37928">
        <ele>285.164</ele>
        <time>2018-06-17T10:13:05Z</time>
      </trkpt>
      <trkpt lat="45.80059" lon="5.37935">
        <ele>284.901</ele>
        <time>2018-06-17T10:13:07Z</time>
      </trkpt>
      <trkpt lat="45.8005" lon="5.37963">
        <ele>284.827</ele>
        <time>2018-06-17T10:13:14Z</time>
      </trkpt>
      <trkpt lat="45.80043" lon="5.37994">
        <ele>284.123</ele>
        <time>2018-06-17T10:13:20Z</time>
      </trkpt>
      <trkpt lat="45.80041" lon="5.38017">
        <ele>284.358</ele>
        <time>2018-06-17T10:13:25Z</time>
      </trkpt>
      <trkpt lat="45.80041" lon="5.38042">
        <ele>284.715</ele>
        <time>2018-06-17T10:13:31Z</time>
      </trkpt>
      <trkpt lat="45.80043" lon="5.38062">
        <ele>284.995</ele>
        <time>2018-06-17T10:14:52Z</time>
      </trkpt>
      <trkpt lat="45.80044" lon="5.38078">
        <ele>285.301</ele>
        <time>2018-06-17T10:14:57Z</time>
      </trkpt>
      <trkpt lat="45.80045" lon="5.3809">
        <ele>285.568</ele>
        <time>2018-06-17T10:15:00Z</time>
      </trkpt>
      <trkpt lat="45.80046" lon="5.38109">
        <ele>285.845</ele>
        <time>2018-06-17T10:15:06Z</time>
      </trkpt>
      <trkpt lat="45.80046" lon="5.38114">
        <ele>285.796</ele>
        <time>2018-06-17T10:15:08Z</time>
      </trkpt>
      <trkpt lat="45.80046" lon="5.38128">
        <ele>286.189</ele>
        <time>2018-06-17T10:15:13Z</time>
      </trkpt>
      <trkpt lat="45.80049" lon="5.38148">
        <ele>286.308</ele>
        <time>2018-06-17T10:15:19Z</time>
      </trkpt>
      <trkpt lat="45.80058" lon="5.38171">
        <ele>286.536</ele>
        <time>2018-06-17T10:15:26Z</time>
      </trkpt>
      <trkpt lat="45.80059" lon="5.38176">
        <ele>286.67</ele>
        <time>2018-06-17T10:15:28Z</time>
      </trkpt>
      <trkpt lat="45.80063" lon="5.38189">
        <ele>287.027</ele>
        <time>2018-06-17T10:15:34Z</time>
      </trkpt>
      <trkpt lat="45.80063" lon="5.38198">
        <ele>287.161</ele>
        <time>2018-06-17T10:15:46Z</time>
      </trkpt>
      <trkpt lat="45.80064" lon="5.38209">
        <ele>286.951</ele>
        <time>2018-06-17T10:15:58Z</time>
      </trkpt>
      <trkpt lat="45.80055" lon="5.38222">
        <ele>287.185</ele>
        <time>2018-06-17T10:16:03Z</time>
      </trkpt>
      <trkpt lat="45.80052" lon="5.38232">
        <ele>287.464</ele>
        <time>2018-06-17T10:16:07Z</time>
      </trkpt>
      <trkpt lat="45.80046" lon="5.38251">
        <ele>287.66</ele>
        <time>2018-06-17T10:16:11Z</time>
      </trkpt>
      <trkpt lat="45.8005" lon="5.38261">
        <ele>287.688</ele>
        <time>2018-06-17T10:16:15Z</time>
      </trkpt>
      <trkpt lat="45.8006" lon="5.38273">
        <ele>287.534</ele>
        <time>2018-06-17T10:16:23Z</time>
      </trkpt>
      <trkpt lat="45.80057" lon="5.38272">
        <ele>288.684</ele>
        <time>2018-06-17T10:20:06Z</time>
      </trkpt>
      <trkpt lat="45.8005" lon="5.38273">
        <ele>288.287</ele>
        <time>2018-06-17T10:20:15Z</time>
      </trkpt>
      <trkpt lat="45.80037" lon="5.38284">
        <ele>288.802</ele>
        <time>2018-06-17T10:20:23Z</time>
      </trkpt>
      <trkpt lat="45.80032" lon="5.38287">
        <ele>288.824</ele>
        <time>2018-06-17T10:20:25Z</time>
      </trkpt>
      <trkpt lat="45.80004" lon="5.38315">
        <ele>288.39</ele>
        <time>2018-06-17T10:20:34Z</time>
      </trkpt>
      <trkpt lat="45.79991" lon="5.38332">
        <ele>288.489</ele>
        <time>2018-06-17T10:20:39Z</time>
      </trkpt>
      <trkpt lat="45.79979" lon="5.38351">
        <ele>287.937</ele>
        <time>2018-06-17T10:20:44Z</time>
      </trkpt>
      <trkpt lat="45.79959" lon="5.38379">
        <ele>288.104</ele>
        <time>2018-06-17T10:20:49Z</time>
      </trkpt>
      <trkpt lat="45.79947" lon="5.38397">
        <ele>287.074</ele>
        <time>2018-06-17T10:20:52Z</time>
      </trkpt>
      <trkpt lat="45.79931" lon="5.3842">
        <ele>287.027</ele>
        <time>2018-06-17T10:20:56Z</time>
      </trkpt>
      <trkpt lat="45.79912" lon="5.38449">
        <ele>287.633</ele>
        <time>2018-06-17T10:21:01Z</time>
      </trkpt>
      <trkpt lat="45.79901" lon="5.3847">
        <ele>288.523</ele>
        <time>2018-06-17T10:21:06Z</time>
      </trkpt>
      <trkpt lat="45.79892" lon="5.38485">
        <ele>289.264</ele>
        <time>2018-06-17T10:21:09Z</time>
      </trkpt>
      <trkpt lat="45.79877" lon="5.38531">
        <ele>289.585</ele>
        <time>2018-06-17T10:21:14Z</time>
      </trkpt>
      <trkpt lat="45.7988" lon="5.38536">
        <ele>289.092</ele>
        <time>2018-06-17T10:21:15Z</time>
      </trkpt>
      <trkpt lat="45.79913" lon="5.38584">
        <ele>288.889</ele>
        <time>2018-06-17T10:21:25Z</time>
      </trkpt>
      <trkpt lat="45.79921" lon="5.38595">
        <ele>288.777</ele>
        <time>2018-06-17T10:21:30Z</time>
      </trkpt>
      <trkpt lat="45.79916" lon="5.38612">
        <ele>288.658</ele>
        <time>2018-06-17T10:21:39Z</time>
      </trkpt>
      <trkpt lat="45.79902" lon="5.38633">
        <ele>288.61</ele>
        <time>2018-06-17T10:21:47Z</time>
      </trkpt>
      <trkpt lat="45.79891" lon="5.38656">
        <ele>288.909</ele>
        <time>2018-06-17T10:21:53Z</time>
      </trkpt>
      <trkpt lat="45.79877" lon="5.38691">
        <ele>290.772</ele>
        <time>2018-06-17T10:22:02Z</time>
      </trkpt>
      <trkpt lat="45.79865" lon="5.38712">
        <ele>292.25</ele>
        <time>2018-06-17T10:22:08Z</time>
      </trkpt>
      <trkpt lat="45.79858" lon="5.38728">
        <ele>292.979</ele>
        <time>2018-06-17T10:22:14Z</time>
      </trkpt>
      <trkpt lat="45.79846" lon="5.38738">
        <ele>292.556</ele>
        <time>2018-06-17T10:22:19Z</time>
      </trkpt>
      <trkpt lat="45.79832" lon="5.38747">
        <ele>292.228</ele>
        <time>2018-06-17T10:22:23Z</time>
      </trkpt>
      <trkpt lat="45.79815" lon="5.38767">
        <ele>291.519</ele>
        <time>2018-06-17T10:22:28Z</time>
      </trkpt>
      <trkpt lat="45.79812" lon="5.38774">
        <ele>292.055</ele>
        <time>2018-06-17T10:22:30Z</time>
      </trkpt>
      <trkpt lat="45.79803" lon="5.38795">
        <ele>292.511</ele>
        <time>2018-06-17T10:22:35Z</time>
      </trkpt>
      <trkpt lat="45.79792" lon="5.38822">
        <ele>293.692</ele>
        <time>2018-06-17T10:22:43Z</time>
      </trkpt>
      <trkpt lat="45.79783" lon="5.38848">
        <ele>295.182</ele>
        <time>2018-06-17T10:22:50Z</time>
      </trkpt>
      <trkpt lat="45.79777" lon="5.38862">
        <ele>295.704</ele>
        <time>2018-06-17T10:22:56Z</time>
      </trkpt>
      <trkpt lat="45.79767" lon="5.389">
        <ele>296.484</ele>
        <time>2018-06-17T10:23:07Z</time>
      </trkpt>
      <trkpt lat="45.79756" lon="5.38945">
        <ele>297.498</ele>
        <time>2018-06-17T10:23:18Z</time>
      </trkpt>
      <trkpt lat="45.79747" lon="5.38986">
        <ele>298.384</ele>
        <time>2018-06-17T10:23:28Z</time>
      </trkpt>
      <trkpt lat="45.79743" lon="5.39002">
        <ele>299.652</ele>
        <time>2018-06-17T10:23:36Z</time>
      </trkpt>
      <trkpt lat="45.79738" lon="5.39036">
        <ele>299.939</ele>
        <time>2018-06-17T10:23:43Z</time>
      </trkpt>
      <trkpt lat="45.7972" lon="5.39081">
        <ele>298.304</ele>
        <time>2018-06-17T10:23:53Z</time>
      </trkpt>
      <trkpt lat="45.79716" lon="5.3909">
        <ele>297.86</ele>
        <time>2018-06-17T10:23:55Z</time>
      </trkpt>
      <trkpt lat="45.79705" lon="5.39126">
        <ele>297.621</ele>
        <time>2018-06-17T10:24:01Z</time>
      </trkpt>
      <trkpt lat="45.79701" lon="5.39142">
        <ele>297.212</ele>
        <time>2018-06-17T10:24:03Z</time>
      </trkpt>
      <trkpt lat="45.79693" lon="5.39176">
        <ele>297.57</ele>
        <time>2018-06-17T10:24:07Z</time>
      </trkpt>
      <trkpt lat="45.79681" lon="5.39205">
        <ele>296.57</ele>
        <time>2018-06-17T10:24:10Z</time>
      </trkpt>
      <trkpt lat="45.7967" lon="5.39225">
        <ele>295.88</ele>
        <time>2018-06-17T10:24:12Z</time>
      </trkpt>
      <trkpt lat="45.79638" lon="5.39277">
        <ele>294.076</ele>
        <time>2018-06-17T10:24:18Z</time>
      </trkpt>
      <trkpt lat="45.79599" lon="5.39326">
        <ele>292.084</ele>
        <time>2018-06-17T10:24:24Z</time>
      </trkpt>
      <trkpt lat="45.79585" lon="5.39342">
        <ele>290.807</ele>
        <time>2018-06-17T10:24:26Z</time>
      </trkpt>
      <trkpt lat="45.79571" lon="5.39357">
        <ele>290.933</ele>
        <time>2018-06-17T10:24:28Z</time>
      </trkpt>
      <trkpt lat="45.79529" lon="5.39399">
        <ele>289.416</ele>
        <time>2018-06-17T10:24:36Z</time>
      </trkpt>
      <trkpt lat="45.79505" lon="5.39403">
        <ele>289.414</ele>
        <time>2018-06-17T10:24:37Z</time>
      </trkpt>
      <trkpt lat="45.7946" lon="5.39444">
        <ele>290.367</ele>
        <time>2018-06-17T10:24:45Z</time>
      </trkpt>
      <trkpt lat="45.79425" lon="5.39485">
        <ele>290.735</ele>
        <time>2018-06-17T10:24:53Z</time>
      </trkpt>
      <trkpt lat="45.79422" lon="5.39491">
        <ele>290.961</ele>
        <time>2018-06-17T10:24:54Z</time>
      </trkpt>
      <trkpt lat="45.79411" lon="5.39533">
        <ele>291.585</ele>
        <time>2018-06-17T10:25:00Z</time>
      </trkpt>
      <trkpt lat="45.79401" lon="5.39578">
        <ele>289.97</ele>
        <time>2018-06-17T10:25:05Z</time>
      </trkpt>
      <trkpt lat="45.79392" lon="5.39587">
        <ele>290.627</ele>
        <time>2018-06-17T10:25:07Z</time>
      </trkpt>
      <trkpt lat="45.79378" lon="5.396">
        <ele>292.086</ele>
        <time>2018-06-17T10:25:10Z</time>
      </trkpt>
      <trkpt lat="45.79353" lon="5.39628">
        <ele>294.264</ele>
        <time>2018-06-17T10:25:19Z</time>
      </trkpt>
      <trkpt lat="45.7932" lon="5.3967">
        <ele>295.788</ele>
        <time>2018-06-17T10:25:28Z</time>
      </trkpt>
      <trkpt lat="45.79309" lon="5.39687">
        <ele>297.165</ele>
        <time>2018-06-17T10:25:33Z</time>
      </trkpt>
      <trkpt lat="45.79294" lon="5.39709">
        <ele>298.968</ele>
        <time>2018-06-17T10:25:39Z</time>
      </trkpt>
      <trkpt lat="45.79271" lon="5.39728">
        <ele>300.324</ele>
        <time>2018-06-17T10:25:46Z</time>
      </trkpt>
      <trkpt lat="45.79235" lon="5.39739">
        <ele>298.98</ele>
        <time>2018-06-17T10:25:55Z</time>
      </trkpt>
      <trkpt lat="45.7923" lon="5.39741">
        <ele>298.978</ele>
        <time>2018-06-17T10:25:56Z</time>
      </trkpt>
      <trkpt lat="45.79182" lon="5.39767">
        <ele>296.035</ele>
        <time>2018-06-17T10:26:05Z</time>
      </trkpt>
      <trkpt lat="45.79147" lon="5.39799">
        <ele>295.972</ele>
        <time>2018-06-17T10:26:12Z</time>
      </trkpt>
      <trkpt lat="45.79118" lon="5.3982">
        <ele>297.243</ele>
        <time>2018-06-17T10:26:19Z</time>
      </trkpt>
      <trkpt lat="45.7911" lon="5.39824">
        <ele>297.722</ele>
        <time>2018-06-17T10:26:21Z</time>
      </trkpt>
      <trkpt lat="45.79063" lon="5.39838">
        <ele>298.434</ele>
        <time>2018-06-17T10:26:31Z</time>
      </trkpt>
      <trkpt lat="45.7904" lon="5.39846">
        <ele>299.651</ele>
        <time>2018-06-17T10:26:36Z</time>
      </trkpt>
      <trkpt lat="45.79032" lon="5.39851">
        <ele>299.572</ele>
        <time>2018-06-17T10:26:38Z</time>
      </trkpt>
      <trkpt lat="45.79019" lon="5.39869">
        <ele>299.234</ele>
        <time>2018-06-17T10:26:43Z</time>
      </trkpt>
      <trkpt lat="45.79005" lon="5.39905">
        <ele>298.833</ele>
        <time>2018-06-17T10:26:49Z</time>
      </trkpt>
      <trkpt lat="45.78996" lon="5.39925">
        <ele>298.267</ele>
        <time>2018-06-17T10:26:52Z</time>
      </trkpt>
      <trkpt lat="45.78989" lon="5.3994">
        <ele>297.057</ele>
        <time>2018-06-17T10:26:54Z</time>
      </trkpt>
      <trkpt lat="45.78962" lon="5.40009">
        <ele>293.794</ele>
        <time>2018-06-17T10:27:01Z</time>
      </trkpt>
      <trkpt lat="45.78956" lon="5.40028">
        <ele>293.093</ele>
        <time>2018-06-17T10:27:03Z</time>
      </trkpt>
      <trkpt lat="45.78954" lon="5.4004">
        <ele>294.731</ele>
        <time>2018-06-17T10:27:07Z</time>
      </trkpt>
      <trkpt lat="45.78952" lon="5.40046">
        <ele>293.893</ele>
        <time>2018-06-17T10:27:46Z</time>
      </trkpt>
      <trkpt lat="45.78938" lon="5.40057">
        <ele>293.798</ele>
        <time>2018-06-17T10:28:52Z</time>
      </trkpt>
      <trkpt lat="45.78932" lon="5.40056">
        <ele>293.341</ele>
        <time>2018-06-17T10:28:54Z</time>
      </trkpt>
      <trkpt lat="45.78886" lon="5.4005">
        <ele>292.785</ele>
        <time>2018-06-17T10:29:05Z</time>
      </trkpt>
      <trkpt lat="45.78835" lon="5.40049">
        <ele>291.488</ele>
        <time>2018-06-17T10:29:15Z</time>
      </trkpt>
      <trkpt lat="45.78789" lon="5.4005">
        <ele>290.934</ele>
        <time>2018-06-17T10:29:22Z</time>
      </trkpt>
      <trkpt lat="45.78761" lon="5.40051">
        <ele>289.168</ele>
        <time>2018-06-17T10:29:26Z</time>
      </trkpt>
      <trkpt lat="45.78718" lon="5.40052">
        <ele>289.428</ele>
        <time>2018-06-17T10:29:33Z</time>
      </trkpt>
      <trkpt lat="45.7867" lon="5.40097">
        <ele>289.173</ele>
        <time>2018-06-17T10:29:42Z</time>
      </trkpt>
      <trkpt lat="45.7861" lon="5.4013">
        <ele>291.419</ele>
        <time>2018-06-17T10:29:54Z</time>
      </trkpt>
      <trkpt lat="45.78562" lon="5.40157">
        <ele>292.665</ele>
        <time>2018-06-17T10:30:05Z</time>
      </trkpt>
      <trkpt lat="45.78549" lon="5.40165">
        <ele>293.2</ele>
        <time>2018-06-17T10:30:08Z</time>
      </trkpt>
      <trkpt lat="45.785" lon="5.40195">
        <ele>294.72</ele>
        <time>2018-06-17T10:30:19Z</time>
      </trkpt>
      <trkpt lat="45.78465" lon="5.40236">
        <ele>294.163</ele>
        <time>2018-06-17T10:30:27Z</time>
      </trkpt>
      <trkpt lat="45.78445" lon="5.40252">
        <ele>293.353</ele>
        <time>2018-06-17T10:30:31Z</time>
      </trkpt>
      <trkpt lat="45.78422" lon="5.40261">
        <ele>294.825</ele>
        <time>2018-06-17T10:30:36Z</time>
      </trkpt>
      <trkpt lat="45.784" lon="5.40274">
        <ele>295.573</ele>
        <time>2018-06-17T10:30:42Z</time>
      </trkpt>
      <trkpt lat="45.78371" lon="5.40307">
        <ele>294.476</ele>
        <time>2018-06-17T10:30:50Z</time>
      </trkpt>
      <trkpt lat="45.78346" lon="5.40353">
        <ele>292.677</ele>
        <time>2018-06-17T10:30:57Z</time>
      </trkpt>
      <trkpt lat="45.78335" lon="5.40374">
        <ele>291.548</ele>
        <time>2018-06-17T10:31:00Z</time>
      </trkpt>
      <trkpt lat="45.78301" lon="5.40434">
        <ele>289.539</ele>
        <time>2018-06-17T10:31:08Z</time>
      </trkpt>
      <trkpt lat="45.78296" lon="5.4044">
        <ele>289.993</ele>
        <time>2018-06-17T10:31:09Z</time>
      </trkpt>
      <trkpt lat="45.78266" lon="5.40467">
        <ele>289.623</ele>
        <time>2018-06-17T10:31:15Z</time>
      </trkpt>
      <trkpt lat="45.78255" lon="5.40467">
        <ele>289.319</ele>
        <time>2018-06-17T10:31:17Z</time>
      </trkpt>
      <trkpt lat="45.78245" lon="5.40466">
        <ele>289.279</ele>
        <time>2018-06-17T10:31:19Z</time>
      </trkpt>
      <trkpt lat="45.78219" lon="5.40483">
        <ele>289.108</ele>
        <time>2018-06-17T10:31:24Z</time>
      </trkpt>
      <trkpt lat="45.78214" lon="5.40499">
        <ele>289.562</ele>
        <time>2018-06-17T10:31:26Z</time>
      </trkpt>
      <trkpt lat="45.78207" lon="5.40528">
        <ele>289.369</ele>
        <time>2018-06-17T10:31:30Z</time>
      </trkpt>
      <trkpt lat="45.7819" lon="5.40565">
        <ele>288.936</ele>
        <time>2018-06-17T10:31:36Z</time>
      </trkpt>
      <trkpt lat="45.78165" lon="5.40596">
        <ele>288.632</ele>
        <time>2018-06-17T10:31:45Z</time>
      </trkpt>
      <trkpt lat="45.78146" lon="5.4063">
        <ele>287.53</ele>
        <time>2018-06-17T10:31:54Z</time>
      </trkpt>
      <trkpt lat="45.78136" lon="5.4066">
        <ele>286.709</ele>
        <time>2018-06-17T10:32:00Z</time>
      </trkpt>
      <trkpt lat="45.78134" lon="5.4067">
        <ele>286.039</ele>
        <time>2018-06-17T10:32:02Z</time>
      </trkpt>
      <trkpt lat="45.78132" lon="5.40687">
        <ele>287.199</ele>
        <time>2018-06-17T10:32:06Z</time>
      </trkpt>
      <trkpt lat="45.78132" lon="5.40693">
        <ele>286.435</ele>
        <time>2018-06-17T10:32:15Z</time>
      </trkpt>
      <trkpt lat="45.78131" lon="5.4072">
        <ele>285.729</ele>
        <time>2018-06-17T10:32:37Z</time>
      </trkpt>
      <trkpt lat="45.78126" lon="5.40749">
        <ele>285.352</ele>
        <time>2018-06-17T10:32:43Z</time>
      </trkpt>
      <trkpt lat="45.78121" lon="5.4077">
        <ele>285.122</ele>
        <time>2018-06-17T10:32:47Z</time>
      </trkpt>
      <trkpt lat="45.78107" lon="5.40806">
        <ele>282.509</ele>
        <time>2018-06-17T10:32:53Z</time>
      </trkpt>
      <trkpt lat="45.78081" lon="5.4086">
        <ele>281.125</ele>
        <time>2018-06-17T10:33:01Z</time>
      </trkpt>
      <trkpt lat="45.78049" lon="5.40908">
        <ele>278.189</ele>
        <time>2018-06-17T10:33:08Z</time>
      </trkpt>
      <trkpt lat="45.78031" lon="5.40927">
        <ele>277.866</ele>
        <time>2018-06-17T10:33:12Z</time>
      </trkpt>
      <trkpt lat="45.78003" lon="5.40948">
        <ele>275.623</ele>
        <time>2018-06-17T10:33:19Z</time>
      </trkpt>
      <trkpt lat="45.7797" lon="5.40969">
        <ele>272.816</ele>
        <time>2018-06-17T10:33:27Z</time>
      </trkpt>
      <trkpt lat="45.77942" lon="5.40997">
        <ele>271.857</ele>
        <time>2018-06-17T10:33:34Z</time>
      </trkpt>
      <trkpt lat="45.77918" lon="5.41026">
        <ele>270.793</ele>
        <time>2018-06-17T10:33:40Z</time>
      </trkpt>
      <trkpt lat="45.77902" lon="5.41042">
        <ele>271.938</ele>
        <time>2018-06-17T10:33:44Z</time>
      </trkpt>
      <trkpt lat="45.77887" lon="5.41055">
        <ele>272.321</ele>
        <time>2018-06-17T10:33:48Z</time>
      </trkpt>
      <trkpt lat="45.77863" lon="5.41091">
        <ele>271.319</ele>
        <time>2018-06-17T10:33:54Z</time>
      </trkpt>
      <trkpt lat="45.7783" lon="5.41138">
        <ele>271.163</ele>
        <time>2018-06-17T10:34:02Z</time>
      </trkpt>
      <trkpt lat="45.77803" lon="5.4117">
        <ele>271.468</ele>
        <time>2018-06-17T10:34:09Z</time>
      </trkpt>
      <trkpt lat="45.77766" lon="5.41212">
        <ele>269.926</ele>
        <time>2018-06-17T10:34:18Z</time>
      </trkpt>
      <trkpt lat="45.77745" lon="5.41244">
        <ele>268.444</ele>
        <time>2018-06-17T10:34:24Z</time>
      </trkpt>
      <trkpt lat="45.7773" lon="5.41267">
        <ele>266.8</ele>
        <time>2018-06-17T10:34:28Z</time>
      </trkpt>
      <trkpt lat="45.77698" lon="5.41308">
        <ele>263.072</ele>
        <time>2018-06-17T10:34:36Z</time>
      </trkpt>
      <trkpt lat="45.7768" lon="5.41334">
        <ele>261.914</ele>
        <time>2018-06-17T10:34:41Z</time>
      </trkpt>
      <trkpt lat="45.77676" lon="5.41359">
        <ele>260.71</ele>
        <time>2018-06-17T10:34:45Z</time>
      </trkpt>
      <trkpt lat="45.77672" lon="5.41382">
        <ele>259.47</ele>
        <time>2018-06-17T10:34:48Z</time>
      </trkpt>
      <trkpt lat="45.77668" lon="5.41408">
        <ele>259.406</ele>
        <time>2018-06-17T10:34:52Z</time>
      </trkpt>
      <trkpt lat="45.7767" lon="5.41441">
        <ele>258.864</ele>
        <time>2018-06-17T10:34:57Z</time>
      </trkpt>
      <trkpt lat="45.77673" lon="5.41445">
        <ele>258.863</ele>
        <time>2018-06-17T10:34:58Z</time>
      </trkpt>
      <trkpt lat="45.777" lon="5.41477">
        <ele>258.85</ele>
        <time>2018-06-17T10:35:06Z</time>
      </trkpt>
      <trkpt lat="45.77721" lon="5.41499">
        <ele>257.154</ele>
        <time>2018-06-17T10:35:11Z</time>
      </trkpt>
      <trkpt lat="45.77749" lon="5.41555">
        <ele>255.594</ele>
        <time>2018-06-17T10:35:20Z</time>
      </trkpt>
      <trkpt lat="45.77771" lon="5.41607">
        <ele>255.771</ele>
        <time>2018-06-17T10:35:29Z</time>
      </trkpt>
      <trkpt lat="45.77793" lon="5.41666">
        <ele>255.338</ele>
        <time>2018-06-17T10:35:40Z</time>
      </trkpt>
      <trkpt lat="45.77815" lon="5.41716">
        <ele>255.564</ele>
        <time>2018-06-17T10:35:51Z</time>
      </trkpt>
      <trkpt lat="45.77821" lon="5.41723">
        <ele>256.605</ele>
        <time>2018-06-17T10:35:57Z</time>
      </trkpt>
      <trkpt lat="45.77818" lon="5.41757">
        <ele>254.126</ele>
        <time>2018-06-17T10:36:19Z</time>
      </trkpt>
      <trkpt lat="45.77816" lon="5.418">
        <ele>252.859</ele>
        <time>2018-06-17T10:36:25Z</time>
      </trkpt>
      <trkpt lat="45.77816" lon="5.41824">
        <ele>252.845</ele>
        <time>2018-06-17T10:36:28Z</time>
      </trkpt>
      <trkpt lat="45.77814" lon="5.41913">
        <ele>251.141</ele>
        <time>2018-06-17T10:36:39Z</time>
      </trkpt>
      <trkpt lat="45.77818" lon="5.41949">
        <ele>250.474</ele>
        <time>2018-06-17T10:36:44Z</time>
      </trkpt>
      <trkpt lat="45.77815" lon="5.41979">
        <ele>249.815</ele>
        <time>2018-06-17T10:36:48Z</time>
      </trkpt>
      <trkpt lat="45.77801" lon="5.42042">
        <ele>248.735</ele>
        <time>2018-06-17T10:36:56Z</time>
      </trkpt>
      <trkpt lat="45.77787" lon="5.42072">
        <ele>247.581</ele>
        <time>2018-06-17T10:37:00Z</time>
      </trkpt>
      <trkpt lat="45.77748" lon="5.42127">
        <ele>245.604</ele>
        <time>2018-06-17T10:37:09Z</time>
      </trkpt>
      <trkpt lat="45.77725" lon="5.42161">
        <ele>245.106</ele>
        <time>2018-06-17T10:37:14Z</time>
      </trkpt>
      <trkpt lat="45.77704" lon="5.42183">
        <ele>243.524</ele>
        <time>2018-06-17T10:37:19Z</time>
      </trkpt>
      <trkpt lat="45.77698" lon="5.42186">
        <ele>242.662</ele>
        <time>2018-06-17T10:37:21Z</time>
      </trkpt>
      <trkpt lat="45.77687" lon="5.42232">
        <ele>241.266</ele>
        <time>2018-06-17T10:37:26Z</time>
      </trkpt>
      <trkpt lat="45.77684" lon="5.42247">
        <ele>240.387</ele>
        <time>2018-06-17T10:37:28Z</time>
      </trkpt>
      <trkpt lat="45.77679" lon="5.42263">
        <ele>238.871</ele>
        <time>2018-06-17T10:37:30Z</time>
      </trkpt>
      <trkpt lat="45.77672" lon="5.42285">
        <ele>237.285</ele>
        <time>2018-06-17T10:37:33Z</time>
      </trkpt>
      <trkpt lat="45.77667" lon="5.42305">
        <ele>236.408</ele>
        <time>2018-06-17T10:37:36Z</time>
      </trkpt>
      <trkpt lat="45.77657" lon="5.42332">
        <ele>234.037</ele>
        <time>2018-06-17T10:37:40Z</time>
      </trkpt>
      <trkpt lat="45.77648" lon="5.42357">
        <ele>232.055</ele>
        <time>2018-06-17T10:37:43Z</time>
      </trkpt>
      <trkpt lat="45.77632" lon="5.42404">
        <ele>229.414</ele>
        <time>2018-06-17T10:37:47Z</time>
      </trkpt>
      <trkpt lat="45.77628" lon="5.42428">
        <ele>228.031</ele>
        <time>2018-06-17T10:37:49Z</time>
      </trkpt>
      <trkpt lat="45.77624" lon="5.42453">
        <ele>227.17</ele>
        <time>2018-06-17T10:37:51Z</time>
      </trkpt>
      <trkpt lat="45.77609" lon="5.42507">
        <ele>226.79</ele>
        <time>2018-06-17T10:37:56Z</time>
      </trkpt>
      <trkpt lat="45.7758" lon="5.42569">
        <ele>227.127</ele>
        <time>2018-06-17T10:38:04Z</time>
      </trkpt>
      <trkpt lat="45.77563" lon="5.42616">
        <ele>227.629</ele>
        <time>2018-06-17T10:38:11Z</time>
      </trkpt>
      <trkpt lat="45.77554" lon="5.4265">
        <ele>227.611</ele>
        <time>2018-06-17T10:38:16Z</time>
      </trkpt>
      <trkpt lat="45.77557" lon="5.42675">
        <ele>227.969</ele>
        <time>2018-06-17T10:38:20Z</time>
      </trkpt>
      <trkpt lat="45.7756" lon="5.42678">
        <ele>227.967</ele>
        <time>2018-06-17T10:38:21Z</time>
      </trkpt>
      <trkpt lat="45.77589" lon="5.42705">
        <ele>227.874</ele>
        <time>2018-06-17T10:38:31Z</time>
      </trkpt>
      <trkpt lat="45.77614" lon="5.42732">
        <ele>228.601</ele>
        <time>2018-06-17T10:38:41Z</time>
      </trkpt>
      <trkpt lat="45.7763" lon="5.42749">
        <ele>228.012</ele>
        <time>2018-06-17T10:38:50Z</time>
      </trkpt>
      <trkpt lat="45.77637" lon="5.42756">
        <ele>228.289</ele>
        <time>2018-06-17T10:40:39Z</time>
      </trkpt>
      <trkpt lat="45.77634" lon="5.42786">
        <ele>228.008</ele>
        <time>2018-06-17T10:40:45Z</time>
      </trkpt>
      <trkpt lat="45.77639" lon="5.4282">
        <ele>225.843</ele>
        <time>2018-06-17T10:40:50Z</time>
      </trkpt>
      <trkpt lat="45.77652" lon="5.42885">
        <ele>225.707</ele>
        <time>2018-06-17T10:41:00Z</time>
      </trkpt>
      <trkpt lat="45.77675" lon="5.42948">
        <ele>226.064</ele>
        <time>2018-06-17T10:41:10Z</time>
      </trkpt>
      <trkpt lat="45.77701" lon="5.43016">
        <ele>225.111</ele>
        <time>2018-06-17T10:41:21Z</time>
      </trkpt>
      <trkpt lat="45.7772" lon="5.43079">
        <ele>225.552</ele>
        <time>2018-06-17T10:41:32Z</time>
      </trkpt>
      <trkpt lat="45.77744" lon="5.43157">
        <ele>225.667</ele>
        <time>2018-06-17T10:41:45Z</time>
      </trkpt>
      <trkpt lat="45.77754" lon="5.4321">
        <ele>224.393</ele>
        <time>2018-06-17T10:41:53Z</time>
      </trkpt>
      <trkpt lat="45.7776" lon="5.43263">
        <ele>223.507</ele>
        <time>2018-06-17T10:41:59Z</time>
      </trkpt>
      <trkpt lat="45.77762" lon="5.43272">
        <ele>222.859</ele>
        <time>2018-06-17T10:42:00Z</time>
      </trkpt>
      <trkpt lat="45.77776" lon="5.43323">
        <ele>223.606</ele>
        <time>2018-06-17T10:42:07Z</time>
      </trkpt>
      <trkpt lat="45.77794" lon="5.43375">
        <ele>222.764</ele>
        <time>2018-06-17T10:42:15Z</time>
      </trkpt>
      <trkpt lat="45.77815" lon="5.43441">
        <ele>224.676</ele>
        <time>2018-06-17T10:42:24Z</time>
      </trkpt>
      <trkpt lat="45.77833" lon="5.43498">
        <ele>222.428</ele>
        <time>2018-06-17T10:42:32Z</time>
      </trkpt>
      <trkpt lat="45.77872" lon="5.43608">
        <ele>221.143</ele>
        <time>2018-06-17T10:42:47Z</time>
      </trkpt>
      <trkpt lat="45.77912" lon="5.43713">
        <ele>222.899</ele>
        <time>2018-06-17T10:43:02Z</time>
      </trkpt>
      <trkpt lat="45.77937" lon="5.4378">
        <ele>222.284</ele>
        <time>2018-06-17T10:43:12Z</time>
      </trkpt>
      <trkpt lat="45.7797" lon="5.43861">
        <ele>221.928</ele>
        <time>2018-06-17T10:43:24Z</time>
      </trkpt>
      <trkpt lat="45.77993" lon="5.43925">
        <ele>222.218</ele>
        <time>2018-06-17T10:43:34Z</time>
      </trkpt>
      <trkpt lat="45.78013" lon="5.43984">
        <ele>222.017</ele>
        <time>2018-06-17T10:43:44Z</time>
      </trkpt>
      <trkpt lat="45.78018" lon="5.44006">
        <ele>221.647</ele>
        <time>2018-06-17T10:43:48Z</time>
      </trkpt>
      <trkpt lat="45.78011" lon="5.44022">
        <ele>221.703</ele>
        <time>2018-06-17T10:43:53Z</time>
      </trkpt>
      <trkpt lat="45.77993" lon="5.44034">
        <ele>221.269</ele>
        <time>2018-06-17T10:43:58Z</time>
      </trkpt>
      <trkpt lat="45.77978" lon="5.44043">
        <ele>221.227</ele>
        <time>2018-06-17T10:44:01Z</time>
      </trkpt>
      <trkpt lat="45.7797" lon="5.44052">
        <ele>221.444</ele>
        <time>2018-06-17T10:44:03Z</time>
      </trkpt>
      <trkpt lat="45.77946" lon="5.44091">
        <ele>220.763</ele>
        <time>2018-06-17T10:44:10Z</time>
      </trkpt>
      <trkpt lat="45.77935" lon="5.44115">
        <ele>221.241</ele>
        <time>2018-06-17T10:44:16Z</time>
      </trkpt>
      <trkpt lat="45.77946" lon="5.44125">
        <ele>220.499</ele>
        <time>2018-06-17T10:44:21Z</time>
      </trkpt>
      <trkpt lat="45.77982" lon="5.44149">
        <ele>220.543</ele>
        <time>2018-06-17T10:44:30Z</time>
      </trkpt>
      <trkpt lat="45.78015" lon="5.44168">
        <ele>219.446</ele>
        <time>2018-06-17T10:44:37Z</time>
      </trkpt>
      <trkpt lat="45.78047" lon="5.44189">
        <ele>219.728</ele>
        <time>2018-06-17T10:44:45Z</time>
      </trkpt>
      <trkpt lat="45.78052" lon="5.44193">
        <ele>221.085</ele>
        <time>2018-06-17T10:44:50Z</time>
      </trkpt>
      <trkpt lat="45.78057" lon="5.44197">
        <ele>221.481</ele>
        <time>2018-06-17T10:44:57Z</time>
      </trkpt>
      <trkpt lat="45.78076" lon="5.4422">
        <ele>221.916</ele>
        <time>2018-06-17T10:45:04Z</time>
      </trkpt>
      <trkpt lat="45.78099" lon="5.44248">
        <ele>221.635</ele>
        <time>2018-06-17T10:45:12Z</time>
      </trkpt>
      <trkpt lat="45.78127" lon="5.44284">
        <ele>222.962</ele>
        <time>2018-06-17T10:45:22Z</time>
      </trkpt>
      <trkpt lat="45.78138" lon="5.44302">
        <ele>222.308</ele>
        <time>2018-06-17T10:45:26Z</time>
      </trkpt>
      <trkpt lat="45.78177" lon="5.44361">
        <ele>223.235</ele>
        <time>2018-06-17T10:45:40Z</time>
      </trkpt>
      <trkpt lat="45.78205" lon="5.44403">
        <ele>224.473</ele>
        <time>2018-06-17T10:45:51Z</time>
      </trkpt>
      <trkpt lat="45.78225" lon="5.44428">
        <ele>224.924</ele>
        <time>2018-06-17T10:45:59Z</time>
      </trkpt>
      <trkpt lat="45.78244" lon="5.44448">
        <ele>224.667</ele>
        <time>2018-06-17T10:46:06Z</time>
      </trkpt>
      <trkpt lat="45.78247" lon="5.44451">
        <ele>224.665</ele>
        <time>2018-06-17T10:46:07Z</time>
      </trkpt>
      <trkpt lat="45.78261" lon="5.44464">
        <ele>224.479</ele>
        <time>2018-06-17T10:46:11Z</time>
      </trkpt>
      <trkpt lat="45.78312" lon="5.44482">
        <ele>225.127</ele>
        <time>2018-06-17T10:46:23Z</time>
      </trkpt>
      <trkpt lat="45.78346" lon="5.44481">
        <ele>224.688</ele>
        <time>2018-06-17T10:46:30Z</time>
      </trkpt>
      <trkpt lat="45.7838" lon="5.44476">
        <ele>226.001</ele>
        <time>2018-06-17T10:46:37Z</time>
      </trkpt>
      <trkpt lat="45.78407" lon="5.44468">
        <ele>225.019</ele>
        <time>2018-06-17T10:46:43Z</time>
      </trkpt>
      <trkpt lat="45.78421" lon="5.44463">
        <ele>223.533</ele>
        <time>2018-06-17T10:46:46Z</time>
      </trkpt>
      <trkpt lat="45.78471" lon="5.44444">
        <ele>223.477</ele>
        <time>2018-06-17T10:46:56Z</time>
      </trkpt>
      <trkpt lat="45.78502" lon="5.44431">
        <ele>221.403</ele>
        <time>2018-06-17T10:47:02Z</time>
      </trkpt>
      <trkpt lat="45.78545" lon="5.44406">
        <ele>220.254</ele>
        <time>2018-06-17T10:47:10Z</time>
      </trkpt>
      <trkpt lat="45.78589" lon="5.44376">
        <ele>218.222</ele>
        <time>2018-06-17T10:47:19Z</time>
      </trkpt>
      <trkpt lat="45.78632" lon="5.44362">
        <ele>216.912</ele>
        <time>2018-06-17T10:47:27Z</time>
      </trkpt>
      <trkpt lat="45.78678" lon="5.44365">
        <ele>215.785</ele>
        <time>2018-06-17T10:47:35Z</time>
      </trkpt>
      <trkpt lat="45.78684" lon="5.44366">
        <ele>215.055</ele>
        <time>2018-06-17T10:47:36Z</time>
      </trkpt>
      <trkpt lat="45.7871" lon="5.44355">
        <ele>216.067</ele>
        <time>2018-06-17T10:47:41Z</time>
      </trkpt>
      <trkpt lat="45.78712" lon="5.44354">
        <ele>216.066</ele>
        <time>2018-06-17T10:47:42Z</time>
      </trkpt>
    </trkseg>
  </trk>
</gpx>